Wetterdaten: Donnerstag, 04.02.2021
Datum Zeit Temp. Aussen Temp. o. S. Temp +5cm Feuchte Auss Luftdruck Regen Sonnenschein Regendauer Solar Windben Empfang
04.02.2021 00:00 7,4 C 6,7 C 6,2 C 99 % 1004,6 hPa 0,0 l/m 0 min 2 min 0 W/m 0,0 km/h (0 Bft) 100,00 %
04.02.2021 00:02 7,4 C 6,7 C 6,2 C 99 % 1004,6 hPa 0,0 l/m 0 min 2 min 0 W/m 0,0 km/h (0 Bft) 95,45 %
04.02.2021 00:04 7,4 C 6,7 C 6,2 C 99 % 1004,7 hPa 0,0 l/m 0 min 2 min 0 W/m 0,0 km/h (0 Bft) 97,87 %
04.02.2021 00:08 7,4 C 6,7 C 6,2 C 99 % 1004,8 hPa 0,0 l/m 0 min 4 min 0 W/m 3,2 km/h (1 Bft) 98,94 %
04.02.2021 00:10 7,4 C 6,7 C 6,2 C 99 % 1004,9 hPa 0,0 l/m 0 min 2 min 0 W/m 3,2 km/h (1 Bft) 100,00 %
04.02.2021 00:12 7,4 C 6,7 C 6,2 C 99 % 1004,8 hPa 0,0 l/m 0 min 2 min 0 W/m 3,2 km/h (1 Bft) 100,00 %
04.02.2021 00:14 7,4 C 6,7 C 6,2 C 99 % 1004,9 hPa 0,0 l/m 0 min 2 min 0 W/m 3,2 km/h (1 Bft) 100,00 %
04.02.2021 00:16 7,4 C 6,7 C 6,2 C 99 % 1004,9 hPa 0,0 l/m 0 min 2 min 0 W/m 3,2 km/h (1 Bft) 100,00 %
04.02.2021 00:18 7,4 C 6,7 C 6,2 C 99 % 1005,0 hPa 0,0 l/m 0 min 2 min 0 W/m 0,0 km/h (0 Bft) 97,87 %
04.02.2021 00:20 7,4 C 6,7 C 6,2 C 99 % 1005,0 hPa 0,0 l/m 0 min 2 min 0 W/m 3,2 km/h (1 Bft) 100,00 %
04.02.2021 00:22 7,4 C 6,7 C 6,2 C 99 % 1005,0 hPa 0,0 l/m 0 min 2 min 0 W/m 0,0 km/h (0 Bft) 100,00 %
04.02.2021 00:24 7,4 C 6,7 C 6,2 C 99 % 1005,1 hPa 0,0 l/m 0 min 2 min 0 W/m 0,0 km/h (0 Bft) 100,00 %
04.02.2021 00:26 7,4 C 6,7 C 6,2 C 99 % 1005,2 hPa 0,0 l/m 0 min 2 min 0 W/m 0,0 km/h (0 Bft) 98,31 %
04.02.2021 00:28 7,4 C 6,7 C 6,2 C 99 % 1005,2 hPa 0,2 l/m 0 min 2 min 0 W/m 3,2 km/h (1 Bft) 100,00 %
04.02.2021 00:30 7,4 C 6,7 C 6,2 C 99 % 1005,2 hPa 0,0 l/m 0 min 2 min 0 W/m 3,2 km/h (1 Bft) 100,00 %
04.02.2021 00:32 7,4 C 6,7 C 6,2 C 99 % 1005,4 hPa 0,0 l/m 0 min 2 min 0 W/m 6,4 km/h (2 Bft) 100,00 %
04.02.2021 00:34 7,4 C 6,7 C 6,2 C 99 % 1005,4 hPa 0,0 l/m 0 min 2 min 0 W/m 3,2 km/h (1 Bft) 97,87 %
04.02.2021 00:36 7,4 C 6,7 C 6,2 C 99 % 1005,4 hPa 0,0 l/m 0 min 2 min 0 W/m 0,0 km/h (0 Bft) 95,74 %
04.02.2021 00:38 7,4 C 6,7 C 6,2 C 99 % 1005,4 hPa 0,0 l/m 0 min 2 min 0 W/m 0,0 km/h (0 Bft) 97,87 %
04.02.2021 00:40 7,4 C 6,7 C 6,2 C 99 % 1005,5 hPa 0,0 l/m 0 min 2 min 0 W/m 3,2 km/h (1 Bft) 97,14 %
04.02.2021 00:42 7,4 C 6,7 C 6,2 C 99 % 1005,5 hPa 0,0 l/m 0 min 2 min 0 W/m 0,0 km/h (0 Bft) 98,28 %
04.02.2021 00:44 7,4 C 6,7 C 6,2 C 99 % 1005,5 hPa 0,0 l/m 0 min 2 min 0 W/m 3,2 km/h (1 Bft) 97,87 %
04.02.2021 00:46 7,4 C 6,7 C 6,2 C 99 % 1005,6 hPa 0,0 l/m 0 min 2 min 0 W/m 0,0 km/h (0 Bft) 95,74 %
04.02.2021 00:48 7,4 C 6,7 C 6,2 C 99 % 1005,6 hPa 0,0 l/m 0 min 2 min 0 W/m 0,0 km/h (0 Bft) 97,14 %
04.02.2021 00:50 7,4 C 6,7 C 6,2 C 99 % 1005,7 hPa 0,0 l/m 0 min 2 min 0 W/m 6,4 km/h (2 Bft) 97,87 %
04.02.2021 00:52 7,4 C 6,7 C 6,2 C 99 % 1005,7 hPa 0,0 l/m 0 min 2 min 0 W/m 3,2 km/h (1 Bft) 98,31 %
04.02.2021 00:54 7,4 C 6,7 C 6,2 C 99 % 1005,7 hPa 0,0 l/m 0 min 2 min 0 W/m 3,2 km/h (1 Bft) 97,14 %
04.02.2021 00:56 7,4 C 6,7 C 6,2 C 99 % 1005,7 hPa 0,0 l/m 0 min 2 min 0 W/m 3,2 km/h (1 Bft) 95,74 %
04.02.2021 00:58 7,4 C 6,7 C 6,2 C 99 % 1005,8 hPa 0,0 l/m 0 min 2 min 0 W/m 3,2 km/h (1 Bft) 97,83 %
04.02.2021 01:00 7,4 C 6,7 C 6,2 C 99 % 1005,8 hPa 0,0 l/m 0 min 2 min 0 W/m 0,0 km/h (0 Bft) 96,61 %
04.02.2021 01:02 7,4 C 6,7 C 6,2 C 99 % 1005,8 hPa 0,0 l/m 0 min 2 min 0 W/m 0,0 km/h (0 Bft) 100,00 %
04.02.2021 01:04 7,4 C 6,7 C 6,2 C 99 % 1005,9 hPa 0,0 l/m 0 min 0 min 0 W/m 0,0 km/h (0 Bft) 95,74 %
04.02.2021 01:06 7,4 C 6,7 C 6,2 C 99 % 1005,8 hPa 0,0 l/m 0 min 0 min 0 W/m 3,2 km/h (1 Bft) 95,74 %
04.02.2021 01:08 7,4 C 6,7 C 6,2 C 99 % 1005,9 hPa 0,0 l/m 0 min 0 min 0 W/m 0,0 km/h (0 Bft) 97,87 %
04.02.2021 01:10 7,4 C 6,7 C 6,2 C 99 % 1006,0 hPa 0,0 l/m 0 min 2 min 0 W/m 0,0 km/h (0 Bft) 97,83 %
04.02.2021 01:12 7,4 C 6,7 C 6,2 C 99 % 1005,9 hPa 0,0 l/m 0 min 2 min 0 W/m 3,2 km/h (1 Bft) 95,74 %
04.02.2021 01:14 7,4 C 6,7 C 6,2 C 99 % 1006,0 hPa 0,0 l/m 0 min 2 min 0 W/m 0,0 km/h (0 Bft) 97,87 %
04.02.2021 01:16 7,4 C 6,7 C 6,2 C 99 % 1006,0 hPa 0,0 l/m 0 min 2 min 0 W/m 0,0 km/h (0 Bft) 97,87 %
04.02.2021 01:18 7,4 C 6,7 C 6,2 C 99 % 1006,0 hPa 0,0 l/m 0 min 2 min 0 W/m 0,0 km/h (0 Bft) 97,87 %
04.02.2021 01:20 7,4 C 6,7 C 6,2 C 99 % 1006,0 hPa 0,0 l/m 0 min 2 min 0 W/m 0,0 km/h (0 Bft) 100,00 %
04.02.2021 01:22 7,5 C 6,7 C 6,2 C 99 % 1006,1 hPa 0,0 l/m 0 min 0 min 0 W/m 3,2 km/h (1 Bft) 100,00 %
04.02.2021 01:24 7,5 C 6,7 C 6,2 C 99 % 1006,2 hPa 0,0 l/m 0 min 0 min 0 W/m 6,4 km/h (2 Bft) 100,00 %
04.02.2021 01:26 7,5 C 6,7 C 6,2 C 99 % 1006,2 hPa 0,0 l/m 0 min 0 min 0 W/m 3,2 km/h (1 Bft) 97,87 %
04.02.2021 01:28 7,5 C 6,7 C 6,2 C 99 % 1006,2 hPa 0,0 l/m 0 min 0 min 0 W/m 3,2 km/h (1 Bft) 97,87 %
04.02.2021 01:30 7,5 C 6,7 C 6,2 C 99 % 1006,3 hPa 0,2 l/m 0 min 0 min 0 W/m 0,0 km/h (0 Bft) 100,00 %
04.02.2021 01:32 7,5 C 6,7 C 6,2 C 99 % 1006,3 hPa 0,0 l/m 0 min 0 min 0 W/m 3,2 km/h (1 Bft) 100,00 %
04.02.2021 01:34 7,5 C 6,7 C 6,2 C 99 % 1006,3 hPa 0,0 l/m 0 min 0 min 0 W/m 3,2 km/h (1 Bft) 100,00 %
04.02.2021 01:36 7,5 C 6,7 C 6,2 C 99 % 1006,4 hPa 0,0 l/m 0 min 0 min 0 W/m 6,4 km/h (2 Bft) 97,87 %
04.02.2021 01:38 7,5 C 6,7 C 6,2 C 99 % 1006,5 hPa 0,0 l/m 0 min 0 min 0 W/m 3,2 km/h (1 Bft) 95,74 %
04.02.2021 01:40 7,5 C 6,7 C 6,2 C 99 % 1006,5 hPa 0,0 l/m 0 min 0 min 0 W/m 3,2 km/h (1 Bft) 97,87 %
04.02.2021 01:42 7,5 C 6,7 C 6,7 C 99 % 1006,5 hPa 0,0 l/m 0 min 0 min 0 W/m 6,4 km/h (2 Bft) 97,87 %
04.02.2021 01:44 7,5 C 6,7 C 6,7 C 99 % 1006,6 hPa 0,0 l/m 0 min 0 min 0 W/m 6,4 km/h (2 Bft) 95,74 %
04.02.2021 01:46 7,5 C 6,7 C 6,2 C 99 % 1006,7 hPa 0,0 l/m 0 min 0 min 0 W/m 0,0 km/h (0 Bft) 97,83 %
04.02.2021 01:48 7,5 C 6,7 C 6,7 C 99 % 1006,7 hPa 0,0 l/m 0 min 0 min 0 W/m 0,0 km/h (0 Bft) 97,87 %
04.02.2021 01:50 7,5 C 6,7 C 6,7 C 99 % 1006,8 hPa 0,0 l/m 0 min 0 min 0 W/m 3,2 km/h (1 Bft) 97,87 %
04.02.2021 01:52 7,5 C 6,7 C 6,7 C 99 % 1006,9 hPa 0,0 l/m 0 min 0 min 0 W/m 0,0 km/h (0 Bft) 97,87 %
04.02.2021 01:54 7,5 C 6,7 C 6,2 C 99 % 1006,9 hPa 0,0 l/m 0 min 0 min 0 W/m 0,0 km/h (0 Bft) 97,87 %
04.02.2021 01:56 7,5 C 6,7 C 6,7 C 99 % 1006,9 hPa 0,0 l/m 0 min 0 min 0 W/m 25,7 km/h (4 Bft) 97,87 %
04.02.2021 01:58 7,5 C 6,7 C 6,7 C 99 % 1006,9 hPa 0,0 l/m 0 min 0 min 0 W/m 3,2 km/h (1 Bft) 97,83 %
04.02.2021 02:00 7,5 C 6,7 C 6,7 C 99 % 1007,0 hPa 0,0 l/m 0 min 0 min 0 W/m 0,0 km/h (0 Bft) 95,74 %
04.02.2021 02:02 7,5 C 6,7 C 6,7 C 99 % 1007,0 hPa 0,0 l/m 0 min 0 min 0 W/m 0,0 km/h (0 Bft) 97,87 %
04.02.2021 02:04 7,4 C 6,7 C 6,7 C 99 % 1007,0 hPa 0,0 l/m 0 min 0 min 0 W/m 0,0 km/h (0 Bft) 93,62 %
04.02.2021 02:06 7,5 C 6,7 C 6,2 C 99 % 1007,1 hPa 0,0 l/m 0 min 0 min 0 W/m 0,0 km/h (0 Bft) 97,87 %
04.02.2021 02:08 7,4 C 6,7 C 6,2 C 99 % 1007,1 hPa 0,0 l/m 0 min 0 min 0 W/m 3,2 km/h (1 Bft) 97,83 %
04.02.2021 02:10 7,4 C 6,7 C 6,2 C 99 % 1007,2 hPa 0,0 l/m 0 min 2 min 0 W/m 0,0 km/h (0 Bft) 97,87 %
04.02.2021 02:12 7,4 C 6,7 C 6,2 C 99 % 1007,2 hPa 0,0 l/m 0 min 0 min 0 W/m 0,0 km/h (0 Bft) 97,87 %
04.02.2021 02:14 7,4 C 6,7 C 6,7 C 99 % 1007,2 hPa 0,0 l/m 0 min 0 min 0 W/m 0,0 km/h (0 Bft) 97,87 %
04.02.2021 02:16 7,4 C 6,7 C 6,7 C 99 % 1007,3 hPa 0,0 l/m 0 min 0 min 0 W/m 3,2 km/h (1 Bft) 97,87 %
04.02.2021 02:18 7,4 C 6,7 C 6,7 C 99 % 1007,3 hPa 0,0 l/m 0 min 0 min 0 W/m 0,0 km/h (0 Bft) 95,74 %
04.02.2021 02:20 7,4 C 6,7 C 6,2 C 99 % 1007,4 hPa 0,0 l/m 0 min 0 min 0 W/m 3,2 km/h (1 Bft) 97,87 %
04.02.2021 02:22 7,4 C 6,7 C 6,2 C 99 % 1007,5 hPa 0,0 l/m 0 min 0 min 0 W/m 6,4 km/h (2 Bft) 97,83 %
04.02.2021 02:24 7,4 C 6,7 C 6,2 C 99 % 1007,5 hPa 0,0 l/m 0 min 0 min 0 W/m 0,0 km/h (0 Bft) 95,74 %
04.02.2021 02:26 7,4 C 6,7 C 6,7 C 99 % 1007,5 hPa 0,0 l/m 0 min 0 min 0 W/m 0,0 km/h (0 Bft) 100,00 %
04.02.2021 02:28 7,4 C 6,7 C 6,7 C 99 % 1007,5 hPa 0,0 l/m 0 min 0 min 0 W/m 0,0 km/h (0 Bft) 100,00 %
04.02.2021 02:30 7,4 C 6,7 C 6,7 C 99 % 1007,6 hPa 0,0 l/m 0 min 0 min 0 W/m 0,0 km/h (0 Bft) 100,00 %
04.02.2021 02:32 7,4 C 6,7 C 6,7 C 99 % 1007,6 hPa 0,0 l/m 0 min 0 min 0 W/m 3,2 km/h (1 Bft) 100,00 %
04.02.2021 02:34 7,4 C 6,7 C 6,2 C 99 % 1007,7 hPa 0,0 l/m 0 min 2 min 0 W/m 0,0 km/h (0 Bft) 100,00 %
04.02.2021 02:36 7,4 C 6,7 C 6,2 C 99 % 1007,7 hPa 0,0 l/m 0 min 2 min 0 W/m 3,2 km/h (1 Bft) 100,00 %
04.02.2021 02:38 7,4 C 6,7 C 6,2 C 99 % 1007,8 hPa 0,0 l/m 0 min 2 min 0 W/m 0,0 km/h (0 Bft) 100,00 %
04.02.2021 02:40 7,4 C 6,7 C 6,2 C 99 % 1007,8 hPa 0,0 l/m 0 min 2 min 0 W/m 3,2 km/h (1 Bft) 97,87 %
04.02.2021 02:42 7,4 C 6,7 C 6,2 C 99 % 1007,8 hPa 0,0 l/m 0 min 0 min 0 W/m 3,2 km/h (1 Bft) 97,87 %
04.02.2021 02:44 7,4 C 6,7 C 6,2 C 99 % 1007,8 hPa 0,0 l/m 0 min 0 min 0 W/m 0,0 km/h (0 Bft) 100,00 %
04.02.2021 02:46 7,4 C 6,7 C 6,2 C 99 % 1007,9 hPa 0,0 l/m 0 min 0 min 0 W/m 0,0 km/h (0 Bft) 100,00 %
04.02.2021 02:48 7,4 C 6,7 C 6,2 C 99 % 1007,9 hPa 0,0 l/m 0 min 0 min 0 W/m 0,0 km/h (0 Bft) 97,87 %
04.02.2021 02:50 7,4 C 6,7 C 6,2 C 99 % 1007,9 hPa 0,0 l/m 0 min 0 min 0 W/m 3,2 km/h (1 Bft) 100,00 %
04.02.2021 02:52 7,4 C 6,7 C 6,2 C 99 % 1007,9 hPa 0,0 l/m 0 min 0 min 0 W/m 0,0 km/h (0 Bft) 100,00 %
04.02.2021 02:54 7,4 C 6,7 C 6,2 C 99 % 1008,0 hPa 0,0 l/m 0 min 0 min 0 W/m 3,2 km/h (1 Bft) 97,87 %
04.02.2021 02:56 7,4 C 6,7 C 6,2 C 99 % 1008,0 hPa 0,0 l/m 0 min 0 min 0 W/m 0,0 km/h (0 Bft) 100,00 %
04.02.2021 02:58 7,4 C 6,7 C 6,2 C 99 % 1008,0 hPa 0,0 l/m 0 min 0 min 0 W/m 3,2 km/h (1 Bft) 100,00 %
04.02.2021 03:00 7,4 C 6,7 C 6,7 C 99 % 1008,1 hPa 0,0 l/m 0 min 0 min 0 W/m 0,0 km/h (0 Bft) 100,00 %
04.02.2021 03:02 7,4 C 6,7 C 6,7 C 98 % 1008,1 hPa 0,0 l/m 0 min 0 min 0 W/m 0,0 km/h (0 Bft) 100,00 %
04.02.2021 03:04 7,4 C 6,7 C 6,2 C 98 % 1008,1 hPa 0,0 l/m 0 min 0 min 0 W/m 3,2 km/h (1 Bft) 97,87 %
04.02.2021 03:06 7,4 C 6,7 C 6,2 C 98 % 1008,2 hPa 0,0 l/m 0 min 0 min 0 W/m 3,2 km/h (1 Bft) 97,87 %
04.02.2021 03:08 7,4 C 6,7 C 6,2 C 98 % 1008,2 hPa 0,0 l/m 0 min 0 min 0 W/m 0,0 km/h (0 Bft) 100,00 %
04.02.2021 03:10 7,4 C 6,7 C 6,2 C 98 % 1008,2 hPa 0,0 l/m 0 min 0 min 0 W/m 0,0 km/h (0 Bft) 97,87 %
04.02.2021 03:12 7,4 C 6,7 C 6,7 C 98 % 1008,1 hPa 0,0 l/m 0 min 0 min 0 W/m 3,2 km/h (1 Bft) 95,74 %
04.02.2021 03:14 7,4 C 6,7 C 6,7 C 98 % 1008,2 hPa 0,0 l/m 0 min 0 min 0 W/m 0,0 km/h (0 Bft) 95,74 %
04.02.2021 03:16 7,5 C 6,7 C 6,7 C 98 % 1008,2 hPa 0,0 l/m 0 min 0 min 0 W/m 0,0 km/h (0 Bft) 95,74 %
04.02.2021 03:18 7,5 C 6,7 C 6,7 C 98 % 1008,3 hPa 0,0 l/m 0 min 0 min 0 W/m 3,2 km/h (1 Bft) 95,74 %
04.02.2021 03:20 7,5 C 6,7 C 6,7 C 98 % 1008,2 hPa 0,0 l/m 0 min 0 min 0 W/m 0,0 km/h (0 Bft) 93,48 %
04.02.2021 03:22 7,5 C 6,7 C 6,2 C 98 % 1008,3 hPa 0,0 l/m 0 min 2 min 0 W/m 6,4 km/h (2 Bft) 93,62 %
04.02.2021 03:24 7,5 C 6,7 C 6,2 C 98 % 1008,3 hPa 0,0 l/m 0 min 2 min 0 W/m 0,0 km/h (0 Bft) 95,74 %
04.02.2021 03:26 7,5 C 6,7 C 6,2 C 98 % 1008,3 hPa 0,0 l/m 0 min 2 min 0 W/m 0,0 km/h (0 Bft) 95,74 %
04.02.2021 03:28 7,5 C 6,7 C 6,2 C 98 % 1008,3 hPa 0,0 l/m 0 min 2 min 0 W/m 0,0 km/h (0 Bft) 95,74 %
04.02.2021 03:30 7,5 C 6,7 C 6,2 C 98 % 1008,4 hPa 0,0 l/m 0 min 2 min 0 W/m 0,0 km/h (0 Bft) 95,74 %
04.02.2021 03:32 7,5 C 6,7 C 6,2 C 98 % 1008,4 hPa 0,0 l/m 0 min 0 min 0 W/m 0,0 km/h (0 Bft) 93,48 %
04.02.2021 03:34 7,5 C 6,7 C 6,2 C 98 % 1008,4 hPa 0,0 l/m 0 min 0 min 0 W/m 0,0 km/h (0 Bft) 95,74 %
04.02.2021 03:36 7,5 C 6,7 C 6,2 C 98 % 1008,5 hPa 0,0 l/m 0 min 0 min 0 W/m 0,0 km/h (0 Bft) 95,74 %
04.02.2021 03:38 7,5 C 6,7 C 6,2 C 98 % 1008,6 hPa 0,0 l/m 0 min 0 min 0 W/m 0,0 km/h (0 Bft) 95,74 %
04.02.2021 03:40 7,5 C 6,7 C 6,2 C 98 % 1008,7 hPa 0,0 l/m 0 min 0 min 0 W/m 0,0 km/h (0 Bft) 95,74 %
04.02.2021 03:42 7,5 C 6,7 C 6,2 C 98 % 1008,7 hPa 0,0 l/m 0 min 0 min 0 W/m 0,0 km/h (0 Bft) 93,62 %
04.02.2021 03:44 7,5 C 6,7 C 6,2 C 98 % 1008,8 hPa 0,0 l/m 0 min 0 min 0 W/m 0,0 km/h (0 Bft) 95,65 %
04.02.2021 03:46 7,4 C 6,7 C 6,2 C 98 % 1008,7 hPa 0,0 l/m 0 min 0 min 0 W/m 0,0 km/h (0 Bft) 95,74 %
04.02.2021 03:48 7,4 C 6,7 C 6,2 C 98 % 1008,8 hPa 0,0 l/m 0 min 0 min 0 W/m 6,4 km/h (2 Bft) 95,74 %
04.02.2021 03:50 7,4 C 6,7 C 6,2 C 98 % 1008,8 hPa 0,0 l/m 0 min 0 min 0 W/m 0,0 km/h (0 Bft) 93,62 %
04.02.2021 03:52 7,4 C 6,7 C 6,2 C 98 % 1008,8 hPa 0,0 l/m 0 min 0 min 0 W/m 3,2 km/h (1 Bft) 95,74 %
04.02.2021 03:54 7,4 C 6,7 C 6,2 C 98 % 1008,9 hPa 0,0 l/m 0 min 0 min 0 W/m 0,0 km/h (0 Bft) 95,74 %
04.02.2021 03:56 7,4 C 6,7 C 6,2 C 98 % 1008,9 hPa 0,0 l/m 0 min 0 min 0 W/m 0,0 km/h (0 Bft) 97,83 %
04.02.2021 03:58 7,4 C 6,7 C 6,2 C 98 % 1009,0 hPa 0,0 l/m 0 min 0 min 0 W/m 0,0 km/h (0 Bft) 95,74 %
04.02.2021 04:00 7,4 C 6,7 C 6,2 C 98 % 1009,0 hPa 0,0 l/m 0 min 0 min 0 W/m 0,0 km/h (0 Bft) 97,87 %
04.02.2021 04:02 7,4 C 6,7 C 6,2 C 98 % 1009,0 hPa 0,0 l/m 0 min 0 min 0 W/m 0,0 km/h (0 Bft) 97,06 %
04.02.2021 04:04 7,4 C 6,7 C 6,2 C 98 % 1009,0 hPa 0,0 l/m 0 min 0 min 0 W/m 0,0 km/h (0 Bft) 97,87 %
04.02.2021 04:06 7,4 C 6,7 C 6,2 C 98 % 1009,1 hPa 0,0 l/m 0 min 0 min 0 W/m 3,2 km/h (1 Bft) 97,87 %
04.02.2021 04:08 7,4 C 6,7 C 6,2 C 98 % 1009,0 hPa 0,0 l/m 0 min 0 min 0 W/m 3,2 km/h (1 Bft) 97,87 %
04.02.2021 04:10 7,4 C 6,7 C 6,2 C 98 % 1009,0 hPa 0,0 l/m 0 min 0 min 0 W/m 0,0 km/h (0 Bft) 97,83 %
04.02.2021 04:12 7,3 C 6,7 C 6,2 C 97 % 1009,1 hPa 0,0 l/m 0 min 0 min 0 W/m 0,0 km/h (0 Bft) 97,87 %
04.02.2021 04:14 7,3 C 6,7 C 6,2 C 97 % 1009,0 hPa 0,0 l/m 0 min 0 min 0 W/m 0,0 km/h (0 Bft) 97,87 %
04.02.2021 04:16 7,3 C 6,7 C 6,2 C 97 % 1009,1 hPa 0,0 l/m 0 min 0 min 0 W/m 3,2 km/h (1 Bft) 97,87 %
04.02.2021 04:18 7,2 C 6,1 C 6,2 C 97 % 1009,1 hPa 0,0 l/m 0 min 0 min 0 W/m 0,0 km/h (0 Bft) 97,87 %
04.02.2021 04:20 7,2 C 6,1 C 6,2 C 97 % 1009,2 hPa 0,0 l/m 0 min 0 min 0 W/m 0,0 km/h (0 Bft) 97,87 %
04.02.2021 04:22 7,2 C 6,1 C 6,2 C 97 % 1009,2 hPa 0,0 l/m 0 min 0 min 0 W/m 0,0 km/h (0 Bft) 95,65 %
04.02.2021 04:24 7,2 C 6,1 C 6,2 C 97 % 1009,2 hPa 0,0 l/m 0 min 0 min 0 W/m 0,0 km/h (0 Bft) 97,87 %
04.02.2021 04:26 7,1 C 6,1 C 6,2 C 97 % 1009,3 hPa 0,0 l/m 0 min 0 min 0 W/m 0,0 km/h (0 Bft) 95,74 %
04.02.2021 04:28 7,1 C 6,1 C 6,2 C 97 % 1009,3 hPa 0,0 l/m 0 min 0 min 0 W/m 0,0 km/h (0 Bft) 97,87 %
04.02.2021 04:30 7,1 C 6,1 C 6,2 C 96 % 1009,4 hPa 0,0 l/m 0 min 0 min 0 W/m 0,0 km/h (0 Bft) 95,74 %
04.02.2021 04:32 7,1 C 6,1 C 6,2 C 96 % 1009,3 hPa 0,0 l/m 0 min 0 min 0 W/m 3,2 km/h (1 Bft) 97,83 %
04.02.2021 04:34 7,1 C 6,1 C 6,2 C 96 % 1009,4 hPa 0,0 l/m 0 min 0 min 0 W/m 0,0 km/h (0 Bft) 93,62 %
04.02.2021 04:36 7,1 C 6,1 C 6,2 C 96 % 1009,4 hPa 0,0 l/m 0 min 0 min 0 W/m 0,0 km/h (0 Bft) 95,74 %
04.02.2021 04:38 7,1 C 6,1 C 6,2 C 96 % 1009,5 hPa 0,0 l/m 0 min 0 min 0 W/m 3,2 km/h (1 Bft) 95,74 %
04.02.2021 04:40 7,1 C 6,1 C 6,2 C 96 % 1009,6 hPa 0,0 l/m 0 min 0 min 0 W/m 0,0 km/h (0 Bft) 95,74 %
04.02.2021 04:42 7,1 C 6,1 C 6,2 C 96 % 1009,6 hPa 0,0 l/m 0 min 0 min 0 W/m 3,2 km/h (1 Bft) 95,74 %
04.02.2021 04:44 7,1 C 6,1 C 6,2 C 96 % 1009,6 hPa 0,0 l/m 0 min 0 min 0 W/m 0,0 km/h (0 Bft) 95,65 %
04.02.2021 04:46 7,1 C 6,1 C 6,2 C 96 % 1009,6 hPa 0,0 l/m 0 min 0 min 0 W/m 0,0 km/h (0 Bft) 95,74 %
04.02.2021 04:48 7,1 C 6,1 C 6,2 C 96 % 1009,7 hPa 0,0 l/m 0 min 0 min 0 W/m 3,2 km/h (1 Bft) 95,74 %
04.02.2021 04:50 7,1 C 6,1 C 6,2 C 96 % 1009,8 hPa 0,0 l/m 0 min 0 min 0 W/m 0,0 km/h (0 Bft) 91,49 %
04.02.2021 04:52 7,1 C 6,1 C 6,2 C 96 % 1009,9 hPa 0,0 l/m 0 min 0 min 0 W/m 0,0 km/h (0 Bft) 95,74 %
04.02.2021 04:54 7,1 C 6,1 C 6,2 C 95 % 1009,9 hPa 0,0 l/m 0 min 0 min 0 W/m 0,0 km/h (0 Bft) 93,62 %
04.02.2021 04:56 7,1 C 6,1 C 6,2 C 95 % 1010,0 hPa 0,0 l/m 0 min 0 min 0 W/m 0,0 km/h (0 Bft) 93,48 %
04.02.2021 04:58 7,1 C 6,1 C 5,6 C 95 % 1010,1 hPa 0,0 l/m 0 min 0 min 0 W/m 3,2 km/h (1 Bft) 95,74 %
04.02.2021 05:00 7,1 C 6,1 C 5,6 C 95 % 1010,1 hPa 0,0 l/m 0 min 0 min 0 W/m 0,0 km/h (0 Bft) 95,74 %
04.02.2021 05:02 7,1 C 6,1 C 5,6 C 95 % 1010,1 hPa 0,0 l/m 0 min 0 min 0 W/m 0,0 km/h (0 Bft) 95,74 %
04.02.2021 05:04 7,1 C 6,1 C 5,6 C 95 % 1010,2 hPa 0,0 l/m 0 min 0 min 0 W/m 0,0 km/h (0 Bft) 95,74 %
04.02.2021 05:06 7,1 C 6,1 C 5,6 C 95 % 1010,2 hPa 0,0 l/m 0 min 0 min 0 W/m 0,0 km/h (0 Bft) 95,74 %
04.02.2021 05:08 7,1 C 6,1 C 5,6 C 95 % 1010,3 hPa 0,0 l/m 0 min 0 min 0 W/m 0,0 km/h (0 Bft) 93,48 %
04.02.2021 05:10 7,1 C 6,1 C 5,6 C 95 % 1010,3 hPa 0,0 l/m 0 min 0 min 0 W/m 6,4 km/h (2 Bft) 95,74 %
04.02.2021 05:12 7,1 C 6,1 C 5,6 C 95 % 1010,4 hPa 0,0 l/m 0 min 0 min 0 W/m 3,2 km/h (1 Bft) 95,74 %
04.02.2021 05:14 7,0 C 6,1 C 5,6 C 94 % 1010,4 hPa 0,0 l/m 0 min 0 min 0 W/m 3,2 km/h (1 Bft) 96,00 %
04.02.2021 05:16 7,0 C 6,1 C 5,6 C 94 % 1010,4 hPa 0,0 l/m 0 min 0 min 0 W/m 0,0 km/h (0 Bft) 93,62 %
04.02.2021 05:18 7,0 C 6,1 C 5,6 C 94 % 1010,4 hPa 0,0 l/m 0 min 0 min 0 W/m 0,0 km/h (0 Bft) 93,62 %
04.02.2021 05:20 7,0 C 6,1 C 5,6 C 94 % 1010,4 hPa 0,0 l/m 0 min 0 min 0 W/m 0,0 km/h (0 Bft) 95,65 %
04.02.2021 05:22 7,0 C 6,1 C 5,6 C 94 % 1010,5 hPa 0,0 l/m 0 min 0 min 0 W/m 0,0 km/h (0 Bft) 95,74 %
04.02.2021 05:24 6,9 C 6,1 C 5,6 C 94 % 1010,5 hPa 0,0 l/m 0 min 0 min 0 W/m 0,0 km/h (0 Bft) 91,49 %
04.02.2021 05:26 6,9 C 6,1 C 5,6 C 94 % 1010,5 hPa 0,0 l/m 0 min 0 min 0 W/m 0,0 km/h (0 Bft) 97,87 %
04.02.2021 05:28 6,9 C 6,1 C 5,0 C 94 % 1010,5 hPa 0,0 l/m 0 min 0 min 0 W/m 0,0 km/h (0 Bft) 97,87 %
04.02.2021 05:30 6,8 C 6,1 C 5,0 C 94 % 1010,5 hPa 0,0 l/m 0 min 0 min 0 W/m 3,2 km/h (1 Bft) 93,48 %
04.02.2021 05:32 6,8 C 6,1 C 5,0 C 94 % 1010,6 hPa 0,0 l/m 0 min 0 min 0 W/m 3,2 km/h (1 Bft) 97,87 %
04.02.2021 05:34 6,8 C 5,6 C 5,0 C 94 % 1010,6 hPa 0,0 l/m 0 min 0 min 0 W/m 0,0 km/h (0 Bft) 97,87 %
04.02.2021 05:36 6,8 C 5,6 C 5,0 C 94 % 1010,6 hPa 0,0 l/m 0 min 0 min 0 W/m 0,0 km/h (0 Bft) 95,74 %
04.02.2021 05:38 6,7 C 5,6 C 5,0 C 94 % 1010,6 hPa 0,0 l/m 0 min 0 min 0 W/m 0,0 km/h (0 Bft) 97,87 %
04.02.2021 05:40 6,6 C 5,6 C 5,0 C 94 % 1010,7 hPa 0,0 l/m 0 min 0 min 0 W/m 0,0 km/h (0 Bft) 93,62 %
04.02.2021 05:42 6,6 C 5,6 C 5,0 C 94 % 1010,6 hPa 0,0 l/m 0 min 0 min 0 W/m 0,0 km/h (0 Bft) 97,87 %
04.02.2021 05:44 6,6 C 5,6 C 5,0 C 94 % 1010,6 hPa 0,0 l/m 0 min 0 min 0 W/m 0,0 km/h (0 Bft) 97,83 %
04.02.2021 05:46 6,5 C 5,6 C 5,0 C 94 % 1010,7 hPa 0,0 l/m 0 min 0 min 0 W/m 0,0 km/h (0 Bft) 95,74 %
04.02.2021 05:48 6,5 C 5,6 C 5,0 C 94 % 1010,7 hPa 0,0 l/m 0 min 0 min 0 W/m 0,0 km/h (0 Bft) 95,74 %
04.02.2021 05:50 6,5 C 5,6 C 5,0 C 94 % 1010,7 hPa 0,0 l/m 0 min 0 min 0 W/m 0,0 km/h (0 Bft) 93,62 %
04.02.2021 05:52 6,5 C 5,6 C 5,0 C 94 % 1010,7 hPa 0,0 l/m 0 min 0 min 0 W/m 3,2 km/h (1 Bft) 95,74 %
04.02.2021 05:54 6,4 C 5,6 C 5,0 C 94 % 1010,7 hPa 0,0 l/m 0 min 0 min 0 W/m 0,0 km/h (0 Bft) 95,65 %
04.02.2021 05:56 6,4 C 5,6 C 5,0 C 94 % 1010,8 hPa 0,0 l/m 0 min 0 min 0 W/m 0,0 km/h (0 Bft) 95,74 %
04.02.2021 05:58 6,4 C 5,6 C 5,0 C 94 % 1010,8 hPa 0,0 l/m 0 min 0 min 0 W/m 0,0 km/h (0 Bft) 93,62 %
04.02.2021 06:00 6,4 C 5,6 C 5,0 C 94 % 1010,8 hPa 0,0 l/m 0 min 0 min 0 W/m 0,0 km/h (0 Bft) 95,74 %
04.02.2021 06:02 6,4 C 5,6 C 5,0 C 94 % 1010,8 hPa 0,0 l/m 0 min 0 min 0 W/m 0,0 km/h (0 Bft) 95,74 %
04.02.2021 06:04 6,4 C 5,6 C 5,0 C 94 % 1010,8 hPa 0,0 l/m 0 min 0 min 0 W/m 0,0 km/h (0 Bft) 95,74 %
04.02.2021 06:08 6,3 C 5,6 C 5,0 C 95 % 1010,9 hPa 0,0 l/m 0 min 0 min 0 W/m 0,0 km/h (0 Bft) 95,74 %
04.02.2021 06:10 6,3 C 5,6 C 5,0 C 95 % 1010,9 hPa 0,0 l/m 0 min 0 min 0 W/m 3,2 km/h (1 Bft) 93,62 %
04.02.2021 06:12 6,3 C 5,6 C 5,0 C 95 % 1010,9 hPa 0,0 l/m 0 min 0 min 0 W/m 0,0 km/h (0 Bft) 95,65 %
04.02.2021 06:14 6,3 C 5,6 C 5,0 C 95 % 1010,9 hPa 0,0 l/m 0 min 0 min 0 W/m 0,0 km/h (0 Bft) 95,74 %
04.02.2021 06:16 6,3 C 5,6 C 4,5 C 95 % 1011,0 hPa 0,0 l/m 0 min 0 min 0 W/m 0,0 km/h (0 Bft) 95,74 %
04.02.2021 06:18 6,2 C 5,6 C 4,5 C 95 % 1011,0 hPa 0,0 l/m 0 min 0 min 0 W/m 0,0 km/h (0 Bft) 95,74 %
04.02.2021 06:20 6,2 C 5,6 C 4,5 C 95 % 1011,0 hPa 0,0 l/m 0 min 0 min 0 W/m 0,0 km/h (0 Bft) 95,74 %
04.02.2021 06:22 6,2 C 5,6 C 4,5 C 95 % 1011,0 hPa 0,0 l/m 0 min 0 min 0 W/m 0,0 km/h (0 Bft) 91,49 %
04.02.2021 06:24 6,2 C 5,6 C 4,5 C 95 % 1011,1 hPa 0,0 l/m 0 min 0 min 0 W/m 0,0 km/h (0 Bft) 93,48 %
04.02.2021 06:26 6,1 C 5,6 C 4,5 C 95 % 1011,1 hPa 0,0 l/m 0 min 0 min 0 W/m 3,2 km/h (1 Bft) 93,62 %
04.02.2021 06:28 6,1 C 5,6 C 5,0 C 95 % 1011,2 hPa 0,0 l/m 0 min 0 min 0 W/m 0,0 km/h (0 Bft) 95,74 %
04.02.2021 06:30 6,1 C 5,6 C 4,5 C 95 % 1011,2 hPa 0,0 l/m 0 min 0 min 0 W/m 0,0 km/h (0 Bft) 97,87 %
04.02.2021 06:32 6,1 C 5,6 C 4,5 C 95 % 1011,3 hPa 0,0 l/m 0 min 0 min 0 W/m 3,2 km/h (1 Bft) 100,00 %
04.02.2021 06:34 6,1 C 5,6 C 4,5 C 95 % 1011,3 hPa 0,0 l/m 0 min 0 min 0 W/m 3,2 km/h (1 Bft) 97,87 %
04.02.2021 06:36 6,1 C 5,6 C 4,5 C 95 % 1011,3 hPa 0,0 l/m 0 min 0 min 0 W/m 0,0 km/h (0 Bft) 95,74 %
04.02.2021 06:38 6,1 C 5,6 C 4,5 C 95 % 1011,3 hPa 0,0 l/m 0 min 0 min 0 W/m 0,0 km/h (0 Bft) 97,87 %
04.02.2021 06:40 6,1 C 5,6 C 4,5 C 95 % 1011,4 hPa 0,0 l/m 0 min 0 min 0 W/m 3,2 km/h (1 Bft) 97,83 %
04.02.2021 06:42 6,1 C 5,6 C 4,5 C 95 % 1011,3 hPa 0,0 l/m 0 min 0 min 0 W/m 0,0 km/h (0 Bft) 95,74 %
04.02.2021 06:44 6,1 C 5,6 C 4,5 C 95 % 1011,4 hPa 0,0 l/m 0 min 0 min 0 W/m 3,2 km/h (1 Bft) 97,87 %
04.02.2021 06:46 6,1 C 5,6 C 4,5 C 95 % 1011,4 hPa 0,0 l/m 0 min 0 min 0 W/m 3,2 km/h (1 Bft) 97,87 %
04.02.2021 06:48 6,1 C 5,6 C 4,5 C 95 % 1011,4 hPa 0,0 l/m 0 min 0 min 0 W/m 0,0 km/h (0 Bft) 97,87 %
04.02.2021 06:50 6,1 C 5,6 C 4,5 C 95 % 1011,4 hPa 0,0 l/m 0 min 0 min 0 W/m 0,0 km/h (0 Bft) 95,74 %
04.02.2021 06:52 6,1 C 5,6 C 4,5 C 95 % 1011,4 hPa 0,0 l/m 0 min 0 min 0 W/m 0,0 km/h (0 Bft) 97,83 %
04.02.2021 06:54 6,1 C 5,6 C 4,5 C 95 % 1011,4 hPa 0,0 l/m 0 min 0 min 0 W/m 0,0 km/h (0 Bft) 97,87 %
04.02.2021 06:56 6,0 C 5,6 C 4,5 C 95 % 1011,4 hPa 0,0 l/m 0 min 0 min 0 W/m 0,0 km/h (0 Bft) 97,87 %
04.02.2021 06:58 6,0 C 5,6 C 4,5 C 95 % 1011,5 hPa 0,0 l/m 0 min 0 min 0 W/m 0,0 km/h (0 Bft) 100,00 %
04.02.2021 07:00 6,0 C 5,6 C 4,5 C 95 % 1011,5 hPa 0,0 l/m 0 min 0 min 0 W/m 0,0 km/h (0 Bft) 100,00 %
04.02.2021 07:02 6,0 C 5,6 C 4,5 C 95 % 1011,5 hPa 0,0 l/m 0 min 0 min 0 W/m 0,0 km/h (0 Bft) 97,87 %
04.02.2021 07:04 6,0 C 5,6 C 4,5 C 95 % 1011,5 hPa 0,0 l/m 0 min 0 min 0 W/m 0,0 km/h (0 Bft) 97,83 %
04.02.2021 07:06 6,0 C 5,6 C 4,5 C 95 % 1011,6 hPa 0,0 l/m 0 min 0 min 0 W/m 0,0 km/h (0 Bft) 100,00 %
04.02.2021 07:08 6,0 C 5,6 C 4,5 C 95 % 1011,7 hPa 0,0 l/m 0 min 0 min 0 W/m 0,0 km/h (0 Bft) 100,00 %
04.02.2021 07:10 6,0 C 5,6 C 4,5 C 95 % 1011,5 hPa 0,0 l/m 0 min 0 min 0 W/m 0,0 km/h (0 Bft) 100,00 %
04.02.2021 07:12 6,0 C 5,6 C 4,5 C 95 % 1011,6 hPa 0,0 l/m 0 min 0 min 0 W/m 0,0 km/h (0 Bft) 97,87 %
04.02.2021 07:14 6,0 C 5,6 C 4,5 C 95 % 1011,6 hPa 0,0 l/m 0 min 0 min 0 W/m 0,0 km/h (0 Bft) 100,00 %
04.02.2021 07:16 6,0 C 5,6 C 4,5 C 95 % 1011,6 hPa 0,0 l/m 0 min 0 min 0 W/m 0,0 km/h (0 Bft) 100,00 %
04.02.2021 07:18 6,0 C 5,6 C 4,5 C 95 % 1011,7 hPa 0,0 l/m 0 min 0 min 0 W/m 0,0 km/h (0 Bft) 95,74 %
04.02.2021 07:20 6,0 C 5,6 C 4,5 C 95 % 1011,7 hPa 0,0 l/m 0 min 0 min 0 W/m 0,0 km/h (0 Bft) 48,65 %
04.02.2021 07:22 6,0 C 5,6 C 4,5 C 95 % 1011,8 hPa 0,0 l/m 0 min 0 min 0 W/m 0,0 km/h (0 Bft) 100,00 %
04.02.2021 07:24 6,0 C 5,0 C 4,5 C 95 % 1011,8 hPa 0,0 l/m 0 min 0 min 0 W/m 0,0 km/h (0 Bft) 100,00 %
04.02.2021 07:26 6,0 C 5,6 C 4,5 C 95 % 1011,9 hPa 0,0 l/m 0 min 0 min 0 W/m 0,0 km/h (0 Bft) 97,87 %
04.02.2021 07:28 5,9 C 5,0 C 4,5 C 95 % 1011,8 hPa 0,0 l/m 0 min 0 min 0 W/m 0,0 km/h (0 Bft) 100,00 %
04.02.2021 07:30 5,9 C 5,0 C 4,5 C 95 % 1011,9 hPa 0,0 l/m 0 min 0 min 0 W/m 0,0 km/h (0 Bft) 97,83 %
04.02.2021 07:32 5,9 C 5,0 C 4,5 C 95 % 1011,9 hPa 0,0 l/m 0 min 0 min 0 W/m 0,0 km/h (0 Bft) 100,00 %
04.02.2021 07:34 5,9 C 5,0 C 4,5 C 95 % 1012,0 hPa 0,0 l/m 0 min 0 min 0 W/m 0,0 km/h (0 Bft) 95,74 %
04.02.2021 07:36 5,9 C 5,0 C 4,5 C 95 % 1012,0 hPa 0,0 l/m 0 min 0 min 0 W/m 0,0 km/h (0 Bft) 97,87 %
04.02.2021 07:38 5,9 C 5,0 C 4,5 C 95 % 1012,1 hPa 0,0 l/m 0 min 0 min 0 W/m 0,0 km/h (0 Bft) 97,87 %
04.02.2021 07:40 5,9 C 5,0 C 4,5 C 95 % 1012,1 hPa 0,0 l/m 0 min 0 min 0 W/m 0,0 km/h (0 Bft) 95,74 %
04.02.2021 07:42 5,8 C 5,0 C 4,5 C 95 % 1012,2 hPa 0,0 l/m 0 min 0 min 0 W/m 0,0 km/h (0 Bft) 97,83 %
04.02.2021 07:44 5,8 C 5,0 C 4,5 C 95 % 1012,2 hPa 0,0 l/m 0 min 0 min 0 W/m 0,0 km/h (0 Bft) 95,74 %
04.02.2021 07:46 5,8 C 5,0 C 4,5 C 95 % 1012,2 hPa 0,0 l/m 0 min 0 min 0 W/m 0,0 km/h (0 Bft) 97,87 %
04.02.2021 07:48 5,8 C 5,0 C 4,5 C 95 % 1012,3 hPa 0,0 l/m 0 min 0 min 0 W/m 0,0 km/h (0 Bft) 95,74 %
04.02.2021 07:50 5,8 C 5,0 C 4,5 C 95 % 1012,3 hPa 0,0 l/m 0 min 0 min 0 W/m 3,2 km/h (1 Bft) 97,87 %
04.02.2021 07:52 5,8 C 5,0 C 4,5 C 95 % 1012,4 hPa 0,0 l/m 0 min 0 min 0 W/m 0,0 km/h (0 Bft) 97,87 %
04.02.2021 07:54 5,8 C 5,0 C 4,5 C 95 % 1012,4 hPa 0,0 l/m 0 min 0 min 0 W/m 0,0 km/h (0 Bft) 95,83 %
04.02.2021 07:56 5,8 C 5,0 C 4,5 C 95 % 1012,4 hPa 0,0 l/m 0 min 0 min 0 W/m 0,0 km/h (0 Bft) 97,87 %
04.02.2021 07:58 5,7 C 5,0 C 4,5 C 95 % 1012,4 hPa 0,0 l/m 0 min 0 min 0 W/m 0,0 km/h (0 Bft) 97,87 %
04.02.2021 08:00 5,7 C 5,0 C 4,5 C 95 % 1012,5 hPa 0,0 l/m 0 min 0 min 0 W/m 0,0 km/h (0 Bft) 95,74 %
04.02.2021 08:02 5,7 C 5,0 C 4,5 C 95 % 1012,6 hPa 0,0 l/m 0 min 0 min 0 W/m 0,0 km/h (0 Bft) 93,62 %
04.02.2021 08:04 5,7 C 5,0 C 4,5 C 95 % 1012,6 hPa 0,0 l/m 0 min 0 min 0 W/m 0,0 km/h (0 Bft) 95,74 %
04.02.2021 08:06 5,6 C 5,0 C 4,5 C 95 % 1012,6 hPa 0,0 l/m 0 min 0 min 0 W/m 0,0 km/h (0 Bft) 97,83 %
04.02.2021 08:08 5,6 C 5,0 C 4,5 C 95 % 1012,7 hPa 0,0 l/m 0 min 0 min 0 W/m 0,0 km/h (0 Bft) 91,67 %
04.02.2021 08:10 5,6 C 5,0 C 3,9 C 95 % 1012,7 hPa 0,0 l/m 0 min 0 min 0 W/m 0,0 km/h (0 Bft) 97,87 %
04.02.2021 08:12 5,6 C 5,0 C 3,9 C 95 % 1012,7 hPa 0,0 l/m 0 min 0 min 0 W/m 0,0 km/h (0 Bft) 97,87 %
04.02.2021 08:14 5,6 C 5,0 C 4,5 C 95 % 1012,7 hPa 0,0 l/m 0 min 0 min 5 W/m 0,0 km/h (0 Bft) 95,74 %
04.02.2021 08:16 5,6 C 5,0 C 4,5 C 95 % 1012,8 hPa 0,0 l/m 0 min 0 min 5 W/m 0,0 km/h (0 Bft) 95,65 %
04.02.2021 08:18 5,6 C 5,0 C 3,9 C 95 % 1012,8 hPa 0,0 l/m 0 min 0 min 5 W/m 0,0 km/h (0 Bft) 87,23 %
04.02.2021 08:20 5,6 C 5,0 C 4,5 C 95 % 1012,9 hPa 0,0 l/m 0 min 0 min 7 W/m 0,0 km/h (0 Bft) 97,87 %
04.02.2021 08:22 5,6 C 5,0 C 3,9 C 95 % 1012,9 hPa 0,0 l/m 0 min 0 min 7 W/m 0,0 km/h (0 Bft) 100,00 %
04.02.2021 08:24 5,5 C 5,0 C 3,9 C 95 % 1012,9 hPa 0,0 l/m 0 min 0 min 9 W/m 0,0 km/h (0 Bft) 100,00 %
04.02.2021 08:26 5,5 C 5,0 C 3,9 C 95 % 1012,9 hPa 0,0 l/m 0 min 0 min 9 W/m 0,0 km/h (0 Bft) 97,87 %
04.02.2021 08:28 5,5 C 5,0 C 3,9 C 95 % 1013,0 hPa 0,0 l/m 0 min 0 min 11 W/m 0,0 km/h (0 Bft) 97,83 %
04.02.2021 08:30 5,5 C 5,0 C 3,9 C 95 % 1013,0 hPa 0,0 l/m 0 min 0 min 12 W/m 0,0 km/h (0 Bft) 93,62 %
04.02.2021 08:32 5,5 C 5,0 C 3,9 C 95 % 1013,0 hPa 0,0 l/m 0 min 0 min 12 W/m 0,0 km/h (0 Bft) 97,87 %
04.02.2021 08:34 5,5 C 5,0 C 3,9 C 96 % 1013,1 hPa 0,0 l/m 0 min 0 min 12 W/m 0,0 km/h (0 Bft) 93,62 %
04.02.2021 08:36 5,5 C 5,0 C 4,5 C 96 % 1013,0 hPa 0,0 l/m 0 min 0 min 15 W/m 0,0 km/h (0 Bft) 97,87 %
04.02.2021 08:38 5,5 C 5,0 C 4,5 C 96 % 1013,1 hPa 0,0 l/m 0 min 0 min 21 W/m 0,0 km/h (0 Bft) 95,74 %
04.02.2021 08:40 5,5 C 5,0 C 4,5 C 96 % 1013,2 hPa 0,0 l/m 0 min 0 min 21 W/m 0,0 km/h (0 Bft) 97,83 %
04.02.2021 08:42 5,5 C 5,0 C 4,5 C 96 % 1013,1 hPa 0,0 l/m 0 min 0 min 17 W/m 0,0 km/h (0 Bft) 97,87 %
04.02.2021 08:44 5,5 C 5,0 C 4,5 C 96 % 1013,2 hPa 0,0 l/m 0 min 0 min 16 W/m 0,0 km/h (0 Bft) 95,74 %
04.02.2021 08:46 5,5 C 5,0 C 4,5 C 96 % 1013,2 hPa 0,0 l/m 0 min 0 min 18 W/m 0,0 km/h (0 Bft) 97,87 %
04.02.2021 08:48 5,5 C 5,0 C 4,5 C 96 % 1013,2 hPa 0,0 l/m 0 min 0 min 20 W/m 0,0 km/h (0 Bft) 97,87 %
04.02.2021 08:50 5,5 C 5,0 C 4,5 C 96 % 1013,3 hPa 0,0 l/m 0 min 0 min 24 W/m 0,0 km/h (0 Bft) 97,87 %
04.02.2021 08:52 5,5 C 5,0 C 4,5 C 96 % 1013,3 hPa 0,0 l/m 0 min 0 min 21 W/m 3,2 km/h (1 Bft) 97,83 %
04.02.2021 08:54 5,6 C 5,6 C 4,5 C 96 % 1013,3 hPa 0,0 l/m 0 min 0 min 25 W/m 0,0 km/h (0 Bft) 97,87 %
04.02.2021 08:56 5,6 C 5,6 C 4,5 C 96 % 1013,4 hPa 0,0 l/m 0 min 0 min 25 W/m 0,0 km/h (0 Bft) 97,87 %
04.02.2021 08:58 5,6 C 5,6 C 4,5 C 96 % 1013,4 hPa 0,0 l/m 0 min 0 min 24 W/m 0,0 km/h (0 Bft) 97,87 %
04.02.2021 09:00 5,6 C 5,6 C 5,0 C 96 % 1013,4 hPa 0,0 l/m 0 min 0 min 25 W/m 0,0 km/h (0 Bft) 97,87 %
04.02.2021 09:02 5,6 C 5,6 C 5,0 C 96 % 1013,5 hPa 0,0 l/m 0 min 0 min 30 W/m 0,0 km/h (0 Bft) 97,87 %
04.02.2021 09:04 5,6 C 5,6 C 5,0 C 96 % 1013,4 hPa 0,0 l/m 0 min 0 min 37 W/m 0,0 km/h (0 Bft) 97,83 %
04.02.2021 09:06 5,6 C 5,6 C 5,0 C 96 % 1013,4 hPa 0,0 l/m 0 min 0 min 38 W/m 0,0 km/h (0 Bft) 97,87 %
04.02.2021 09:08 5,7 C 5,6 C 5,0 C 96 % 1013,4 hPa 0,0 l/m 0 min 0 min 39 W/m 0,0 km/h (0 Bft) 97,87 %
04.02.2021 09:10 5,7 C 5,6 C 5,0 C 96 % 1013,5 hPa 0,0 l/m 0 min 0 min 35 W/m 0,0 km/h (0 Bft) 97,87 %
04.02.2021 09:12 5,8 C 5,6 C 5,0 C 96 % 1013,5 hPa 0,0 l/m 0 min 0 min 27 W/m 0,0 km/h (0 Bft) 97,87 %
04.02.2021 09:14 5,8 C 5,6 C 5,0 C 96 % 1013,6 hPa 0,0 l/m 0 min 0 min 21 W/m 3,2 km/h (1 Bft) 100,00 %
04.02.2021 09:16 5,8 C 5,6 C 5,0 C 96 % 1013,6 hPa 0,0 l/m 0 min 0 min 23 W/m 0,0 km/h (0 Bft) 100,00 %
04.02.2021 09:18 5,8 C 5,6 C 5,0 C 96 % 1013,6 hPa 0,0 l/m 0 min 0 min 25 W/m 0,0 km/h (0 Bft) 97,87 %
04.02.2021 09:20 5,8 C 5,6 C 5,0 C 96 % 1013,6 hPa 0,0 l/m 0 min 0 min 29 W/m 0,0 km/h (0 Bft) 100,00 %
04.02.2021 09:22 5,9 C 5,6 C 5,0 C 96 % 1013,6 hPa 0,0 l/m 0 min 0 min 29 W/m 0,0 km/h (0 Bft) 100,00 %
04.02.2021 09:24 5,9 C 5,6 C 5,0 C 96 % 1013,6 hPa 0,0 l/m 0 min 0 min 35 W/m 0,0 km/h (0 Bft) 100,00 %
04.02.2021 09:26 5,9 C 5,6 C 5,0 C 96 % 1013,6 hPa 0,0 l/m 0 min 0 min 40 W/m 6,4 km/h (2 Bft) 100,00 %
04.02.2021 09:28 5,9 C 5,6 C 5,6 C 96 % 1013,7 hPa 0,0 l/m 0 min 0 min 51 W/m 0,0 km/h (0 Bft) 100,00 %
04.02.2021 09:30 5,9 C 6,1 C 5,6 C 96 % 1013,7 hPa 0,0 l/m 0 min 0 min 49 W/m 0,0 km/h (0 Bft) 97,87 %
04.02.2021 09:32 6,0 C 6,1 C 5,6 C 96 % 1013,8 hPa 0,0 l/m 0 min 0 min 47 W/m 0,0 km/h (0 Bft) 100,00 %
04.02.2021 09:34 6,0 C 6,1 C 5,6 C 96 % 1013,8 hPa 0,0 l/m 0 min 0 min 46 W/m 0,0 km/h (0 Bft) 100,00 %
04.02.2021 09:36 6,0 C 6,1 C 5,6 C 96 % 1013,8 hPa 0,0 l/m 0 min 0 min 42 W/m 0,0 km/h (0 Bft) 100,00 %
04.02.2021 09:38 6,0 C 6,1 C 5,6 C 96 % 1013,9 hPa 0,0 l/m 0 min 0 min 42 W/m 0,0 km/h (0 Bft) 100,00 %
04.02.2021 09:40 6,0 C 6,1 C 5,6 C 96 % 1013,9 hPa 0,0 l/m 0 min 0 min 47 W/m 0,0 km/h (0 Bft) 100,00 %
04.02.2021 09:42 6,1 C 6,1 C 5,6 C 96 % 1013,9 hPa 0,0 l/m 0 min 0 min 46 W/m 0,0 km/h (0 Bft) 100,00 %
04.02.2021 09:44 6,1 C 6,1 C 5,6 C 96 % 1013,9 hPa 0,0 l/m 0 min 0 min 43 W/m 0,0 km/h (0 Bft) 97,87 %
04.02.2021 09:46 6,1 C 6,1 C 5,6 C 96 % 1013,9 hPa 0,0 l/m 0 min 0 min 35 W/m 0,0 km/h (0 Bft) 100,00 %
04.02.2021 09:48 6,1 C 6,1 C 5,6 C 96 % 1013,9 hPa 0,0 l/m 0 min 0 min 37 W/m 0,0 km/h (0 Bft) 100,00 %
04.02.2021 09:50 6,1 C 6,1 C 5,6 C 96 % 1013,9 hPa 0,0 l/m 0 min 0 min 59 W/m 0,0 km/h (0 Bft) 100,00 %
04.02.2021 09:52 6,1 C 6,1 C 5,6 C 96 % 1013,9 hPa 0,0 l/m 0 min 0 min 56 W/m 0,0 km/h (0 Bft) 100,00 %
04.02.2021 09:54 6,1 C 6,1 C 5,6 C 96 % 1013,9 hPa 0,0 l/m 0 min 0 min 56 W/m 0,0 km/h (0 Bft) 100,00 %
04.02.2021 09:56 6,1 C 6,1 C 5,6 C 96 % 1013,9 hPa 0,0 l/m 0 min 0 min 50 W/m 0,0 km/h (0 Bft) 100,00 %
04.02.2021 09:58 6,1 C 6,1 C 5,6 C 96 % 1014,0 hPa 0,0 l/m 0 min 0 min 55 W/m 0,0 km/h (0 Bft) 100,00 %
04.02.2021 10:00 6,2 C 6,1 C 5,6 C 96 % 1014,0 hPa 0,0 l/m 0 min 0 min 49 W/m 0,0 km/h (0 Bft) 100,00 %
04.02.2021 10:02 6,2 C 6,1 C 5,6 C 96 % 1014,1 hPa 0,0 l/m 0 min 0 min 50 W/m 0,0 km/h (0 Bft) 100,00 %
04.02.2021 10:04 6,2 C 6,1 C 5,6 C 96 % 1014,2 hPa 0,0 l/m 0 min 0 min 60 W/m 0,0 km/h (0 Bft) 100,00 %
04.02.2021 10:06 6,3 C 6,1 C 5,6 C 96 % 1014,2 hPa 0,0 l/m 0 min 0 min 57 W/m 0,0 km/h (0 Bft) 100,00 %
04.02.2021 10:08 6,3 C 6,1 C 5,6 C 96 % 1014,2 hPa 0,0 l/m 0 min 0 min 50 W/m 0,0 km/h (0 Bft) 97,87 %
04.02.2021 10:10 6,3 C 6,1 C 5,6 C 96 % 1014,2 hPa 0,0 l/m 0 min 0 min 51 W/m 0,0 km/h (0 Bft) 100,00 %
04.02.2021 10:12 6,3 C 6,1 C 5,6 C 96 % 1014,2 hPa 0,0 l/m 0 min 0 min 52 W/m 0,0 km/h (0 Bft) 97,87 %
04.02.2021 10:14 6,3 C 6,1 C 6,2 C 96 % 1014,2 hPa 0,0 l/m 0 min 0 min 49 W/m 0,0 km/h (0 Bft) 100,00 %
04.02.2021 10:16 6,4 C 6,1 C 6,2 C 96 % 1014,2 hPa 0,0 l/m 0 min 0 min 58 W/m 0,0 km/h (0 Bft) 100,00 %
04.02.2021 10:18 6,4 C 6,1 C 6,2 C 96 % 1014,2 hPa 0,0 l/m 0 min 0 min 60 W/m 0,0 km/h (0 Bft) 100,00 %
04.02.2021 10:20 6,4 C 6,7 C 6,2 C 96 % 1014,3 hPa 0,0 l/m 0 min 0 min 71 W/m 0,0 km/h (0 Bft) 100,00 %
04.02.2021 10:22 6,4 C 6,7 C 6,2 C 96 % 1014,2 hPa 0,0 l/m 0 min 0 min 64 W/m 3,2 km/h (1 Bft) 100,00 %
04.02.2021 10:24 6,4 C 6,7 C 6,2 C 96 % 1014,2 hPa 0,0 l/m 0 min 0 min 61 W/m 0,0 km/h (0 Bft) 97,87 %
04.02.2021 10:26 6,5 C 6,7 C 6,2 C 96 % 1014,3 hPa 0,0 l/m 0 min 0 min 51 W/m 0,0 km/h (0 Bft) 95,65 %
04.02.2021 10:28 6,5 C 6,7 C 6,2 C 96 % 1014,3 hPa 0,0 l/m 0 min 0 min 50 W/m 0,0 km/h (0 Bft) 97,87 %
04.02.2021 10:30 6,5 C 6,7 C 6,2 C 96 % 1014,4 hPa 0,0 l/m 0 min 0 min 55 W/m 0,0 km/h (0 Bft) 97,87 %
04.02.2021 10:32 6,5 C 6,7 C 6,2 C 96 % 1014,3 hPa 0,0 l/m 0 min 0 min 57 W/m 0,0 km/h (0 Bft) 93,62 %
04.02.2021 10:34 6,6 C 6,7 C 6,2 C 96 % 1014,4 hPa 0,0 l/m 0 min 0 min 51 W/m 0,0 km/h (0 Bft) 97,87 %
04.02.2021 10:36 6,6 C 6,7 C 6,2 C 96 % 1014,4 hPa 0,0 l/m 0 min 0 min 55 W/m 0,0 km/h (0 Bft) 95,74 %
04.02.2021 10:38 6,6 C 6,7 C 6,2 C 96 % 1014,4 hPa 0,0 l/m 0 min 0 min 61 W/m 0,0 km/h (0 Bft) 97,83 %
04.02.2021 10:40 6,7 C 6,7 C 6,2 C 96 % 1014,4 hPa 0,0 l/m 0 min 0 min 62 W/m 0,0 km/h (0 Bft) 97,87 %
04.02.2021 10:42 6,7 C 6,7 C 6,2 C 95 % 1014,5 hPa 0,0 l/m 0 min 0 min 55 W/m 0,0 km/h (0 Bft) 97,87 %
04.02.2021 10:44 6,8 C 6,7 C 6,2 C 96 % 1014,5 hPa 0,0 l/m 0 min 0 min 60 W/m 3,2 km/h (1 Bft) 97,87 %
04.02.2021 10:46 6,8 C 6,7 C 6,2 C 95 % 1014,5 hPa 0,0 l/m 0 min 0 min 59 W/m 0,0 km/h (0 Bft) 97,87 %
04.02.2021 10:48 6,8 C 6,7 C 6,2 C 95 % 1014,6 hPa 0,0 l/m 0 min 0 min 58 W/m 3,2 km/h (1 Bft) 97,87 %
04.02.2021 10:50 6,8 C 6,7 C 6,2 C 95 % 1014,6 hPa 0,0 l/m 0 min 0 min 72 W/m 3,2 km/h (1 Bft) 97,83 %
04.02.2021 10:52 6,9 C 6,7 C 6,2 C 95 % 1014,6 hPa 0,0 l/m 0 min 0 min 79 W/m 3,2 km/h (1 Bft) 97,87 %
04.02.2021 10:54 6,9 C 6,7 C 6,2 C 95 % 1014,6 hPa 0,0 l/m 0 min 0 min 70 W/m 0,0 km/h (0 Bft) 95,74 %
04.02.2021 10:56 6,9 C 7,2 C 6,7 C 95 % 1014,6 hPa 0,0 l/m 0 min 0 min 76 W/m 0,0 km/h (0 Bft) 95,74 %
04.02.2021 10:58 6,9 C 7,2 C 6,7 C 95 % 1014,7 hPa 0,0 l/m 0 min 0 min 78 W/m 0,0 km/h (0 Bft) 97,22 %
04.02.2021 11:00 6,9 C 7,2 C 6,7 C 95 % 1014,7 hPa 0,0 l/m 0 min 0 min 93 W/m 0,0 km/h (0 Bft) 97,87 %
04.02.2021 11:02 7,0 C 7,2 C 6,7 C 95 % 1014,7 hPa 0,0 l/m 0 min 0 min 115 W/m 0,0 km/h (0 Bft) 97,83 %
04.02.2021 11:04 7,0 C 7,2 C 6,7 C 95 % 1014,6 hPa 0,0 l/m 0 min 0 min 81 W/m 0,0 km/h (0 Bft) 95,74 %
04.02.2021 11:06 7,0 C 7,2 C 6,7 C 95 % 1014,7 hPa 0,0 l/m 0 min 0 min 88 W/m 3,2 km/h (1 Bft) 95,74 %
04.02.2021 11:08 7,0 C 7,2 C 6,7 C 95 % 1014,7 hPa 0,0 l/m 0 min 0 min 76 W/m 0,0 km/h (0 Bft) 100,00 %
04.02.2021 11:10 7,0 C 7,2 C 6,7 C 95 % 1014,7 hPa 0,0 l/m 0 min 0 min 73 W/m 0,0 km/h (0 Bft) 97,87 %
04.02.2021 11:12 7,1 C 7,2 C 6,7 C 95 % 1014,7 hPa 0,0 l/m 0 min 0 min 67 W/m 0,0 km/h (0 Bft) 97,83 %
04.02.2021 11:14 7,1 C 7,2 C 6,7 C 95 % 1014,7 hPa 0,0 l/m 0 min 0 min 60 W/m 0,0 km/h (0 Bft) 100,00 %
04.02.2021 11:16 7,1 C 7,2 C 6,7 C 94 % 1014,7 hPa 0,0 l/m 0 min 0 min 64 W/m 3,2 km/h (1 Bft) 100,00 %
04.02.2021 11:18 7,1 C 7,2 C 6,7 C 94 % 1014,7 hPa 0,0 l/m 0 min 0 min 68 W/m 0,0 km/h (0 Bft) 97,87 %
04.02.2021 11:20 7,2 C 7,2 C 6,7 C 95 % 1014,7 hPa 0,0 l/m 0 min 0 min 72 W/m 0,0 km/h (0 Bft) 97,87 %
04.02.2021 11:22 7,2 C 7,8 C 6,7 C 95 % 1014,8 hPa 0,0 l/m 0 min 0 min 64 W/m 0,0 km/h (0 Bft) 97,87 %
04.02.2021 11:24 7,3 C 7,8 C 6,7 C 94 % 1014,7 hPa 0,0 l/m 0 min 0 min 86 W/m 0,0 km/h (0 Bft) 97,83 %
04.02.2021 11:26 7,4 C 7,8 C 7,3 C 94 % 1014,7 hPa 0,0 l/m 0 min 0 min 94 W/m 0,0 km/h (0 Bft) 95,74 %
04.02.2021 11:28 7,4 C 7,8 C 7,3 C 94 % 1014,7 hPa 0,0 l/m 0 min 0 min 105 W/m 0,0 km/h (0 Bft) 97,87 %
04.02.2021 11:30 7,4 C 7,8 C 7,3 C 94 % 1014,7 hPa 0,0 l/m 0 min 0 min 128 W/m 0,0 km/h (0 Bft) 95,74 %
04.02.2021 11:32 7,5 C 8,3 C 7,8 C 94 % 1014,7 hPa 0,0 l/m 0 min 0 min 147 W/m 0,0 km/h (0 Bft) 97,87 %
04.02.2021 11:34 7,5 C 8,3 C 7,8 C 94 % 1014,7 hPa 0,0 l/m 0 min 0 min 163 W/m 0,0 km/h (0 Bft) 97,87 %
04.02.2021 11:36 7,6 C 9,4 C 7,8 C 94 % 1014,7 hPa 0,0 l/m 2 min 0 min 218 W/m 0,0 km/h (0 Bft) 97,83 %
04.02.2021 11:38 7,7 C 10,6 C 7,8 C 94 % 1014,7 hPa 0,0 l/m 2 min 0 min 385 W/m 0,0 km/h (0 Bft) 95,74 %
04.02.2021 11:40 7,8 C 10,6 C 7,8 C 94 % 1014,7 hPa 0,0 l/m 2 min 0 min 397 W/m 0,0 km/h (0 Bft) 97,87 %
04.02.2021 11:42 7,9 C 11,7 C 7,8 C 94 % 1014,6 hPa 0,0 l/m 2 min 0 min 391 W/m 0,0 km/h (0 Bft) 97,87 %
04.02.2021 11:44 8,0 C 11,7 C 8,4 C 94 % 1014,6 hPa 0,0 l/m 2 min 0 min 389 W/m 0,0 km/h (0 Bft) 97,87 %
04.02.2021 11:46 8,1 C 11,7 C 8,4 C 94 % 1014,7 hPa 0,0 l/m 2 min 0 min 406 W/m 3,2 km/h (1 Bft) 97,87 %
04.02.2021 11:48 8,2 C 12,2 C 8,4 C 93 % 1014,7 hPa 0,0 l/m 2 min 0 min 386 W/m 0,0 km/h (0 Bft) 95,65 %
04.02.2021 11:50 8,3 C 11,7 C 8,4 C 93 % 1014,7 hPa 0,0 l/m 2 min 0 min 371 W/m 3,2 km/h (1 Bft) 97,87 %
04.02.2021 11:52 8,4 C 12,2 C 8,4 C 93 % 1014,7 hPa 0,0 l/m 2 min 0 min 391 W/m 0,0 km/h (0 Bft) 97,87 %
04.02.2021 11:54 8,5 C 11,7 C 8,4 C 92 % 1014,7 hPa 0,0 l/m 2 min 0 min 434 W/m 6,4 km/h (2 Bft) 97,87 %
04.02.2021 11:56 8,6 C 12,2 C 8,4 C 92 % 1014,7 hPa 0,0 l/m 2 min 0 min 429 W/m 0,0 km/h (0 Bft) 95,74 %
04.02.2021 11:58 8,8 C 11,7 C 8,4 C 92 % 1014,7 hPa 0,0 l/m 2 min 0 min 395 W/m 25,7 km/h (4 Bft) 97,87 %
04.02.2021 12:00 8,8 C 11,1 C 8,4 C 91 % 1014,7 hPa 0,0 l/m 2 min 0 min 389 W/m 0,0 km/h (0 Bft) 97,83 %
04.02.2021 12:02 8,9 C 12,2 C 8,4 C 90 % 1014,7 hPa 0,0 l/m 2 min 0 min 400 W/m 0,0 km/h (0 Bft) 97,87 %
04.02.2021 12:04 9,0 C 12,8 C 10,0 C 90 % 1014,7 hPa 0,0 l/m 2 min 0 min 403 W/m 0,0 km/h (0 Bft) 97,87 %
04.02.2021 12:08 9,1 C 12,2 C 12,3 C 89 % 1014,7 hPa 0,0 l/m 4 min 0 min 411 W/m 0,0 km/h (0 Bft) 96,81 %
04.02.2021 12:10 9,2 C 12,2 C 13,4 C 89 % 1014,7 hPa 0,0 l/m 2 min 0 min 411 W/m 0,0 km/h (0 Bft) 93,62 %
04.02.2021 12:12 9,3 C 11,7 C 13,4 C 88 % 1014,6 hPa 0,0 l/m 2 min 0 min 426 W/m 0,0 km/h (0 Bft) 97,83 %
04.02.2021 12:14 9,4 C 11,7 C 13,9 C 88 % 1014,6 hPa 0,0 l/m 2 min 0 min 442 W/m 0,0 km/h (0 Bft) 97,87 %
04.02.2021 12:16 9,4 C 11,7 C 14,5 C 88 % 1014,7 hPa 0,0 l/m 2 min 0 min 481 W/m 0,0 km/h (0 Bft) 97,87 %
04.02.2021 12:18 9,5 C 12,2 C 14,5 C 88 % 1014,6 hPa 0,0 l/m 2 min 0 min 489 W/m 0,0 km/h (0 Bft) 97,87 %
04.02.2021 12:20 9,6 C 12,2 C 14,5 C 87 % 1014,7 hPa 0,0 l/m 2 min 0 min 486 W/m 0,0 km/h (0 Bft) 95,74 %
04.02.2021 12:22 9,6 C 13,3 C 15,0 C 87 % 1014,7 hPa 0,0 l/m 2 min 0 min 481 W/m 0,0 km/h (0 Bft) 95,74 %
04.02.2021 12:24 9,7 C 13,3 C 15,6 C 87 % 1014,7 hPa 0,0 l/m 2 min 0 min 457 W/m 0,0 km/h (0 Bft) 95,65 %
04.02.2021 12:26 9,8 C 13,9 C 15,6 C 87 % 1014,6 hPa 0,0 l/m 2 min 0 min 468 W/m 0,0 km/h (0 Bft) 95,74 %
04.02.2021 12:28 9,9 C 15,0 C 15,6 C 87 % 1014,6 hPa 0,0 l/m 2 min 0 min 493 W/m 0,0 km/h (0 Bft) 95,74 %
04.02.2021 12:30 9,9 C 15,6 C 16,2 C 87 % 1014,7 hPa 0,0 l/m 2 min 0 min 487 W/m 0,0 km/h (0 Bft) 95,74 %
04.02.2021 12:32 10,0 C 15,0 C 16,7 C 87 % 1014,7 hPa 0,0 l/m 2 min 0 min 501 W/m 0,0 km/h (0 Bft) 91,49 %
04.02.2021 12:34 10,1 C 15,6 C 16,2 C 87 % 1014,7 hPa 0,0 l/m 2 min 0 min 526 W/m 0,0 km/h (0 Bft) 95,74 %
04.02.2021 12:36 10,1 C 12,2 C 13,4 C 86 % 1014,7 hPa 0,0 l/m 2 min 0 min 374 W/m 0,0 km/h (0 Bft) 95,65 %
04.02.2021 12:38 10,2 C 11,1 C 11,2 C 86 % 1014,7 hPa 0,0 l/m 0 min 0 min 80 W/m 0,0 km/h (0 Bft) 95,74 %
04.02.2021 12:40 10,2 C 9,4 C 10,0 C 85 % 1014,7 hPa 0,0 l/m 0 min 0 min 78 W/m 0,0 km/h (0 Bft) 91,49 %
04.02.2021 12:42 10,1 C 9,4 C 9,5 C 84 % 1014,7 hPa 0,0 l/m 0 min 0 min 84 W/m 9,7 km/h (2 Bft) 91,49 %
04.02.2021 12:44 10,1 C 9,4 C 8,9 C 84 % 1014,7 hPa 0,0 l/m 0 min 0 min 94 W/m 0,0 km/h (0 Bft) 93,62 %
04.02.2021 12:46 10,0 C 9,4 C 8,4 C 84 % 1014,7 hPa 0,0 l/m 0 min 0 min 124 W/m 0,0 km/h (0 Bft) 93,62 %
04.02.2021 12:48 10,0 C 8,9 C 8,4 C 84 % 1014,6 hPa 0,0 l/m 0 min 0 min 131 W/m 0,0 km/h (0 Bft) 93,48 %
04.02.2021 12:50 9,9 C 8,9 C 8,4 C 84 % 1014,6 hPa 0,0 l/m 0 min 0 min 116 W/m 0,0 km/h (0 Bft) 93,62 %
04.02.2021 12:52 9,9 C 8,9 C 8,4 C 84 % 1014,6 hPa 0,0 l/m 0 min 0 min 120 W/m 0,0 km/h (0 Bft) 95,74 %
04.02.2021 12:54 9,8 C 8,9 C 7,8 C 84 % 1014,6 hPa 0,0 l/m 0 min 0 min 130 W/m 0,0 km/h (0 Bft) 93,62 %
04.02.2021 12:56 9,7 C 9,4 C 8,9 C 84 % 1014,6 hPa 0,0 l/m 0 min 0 min 161 W/m 0,0 km/h (0 Bft) 93,62 %
04.02.2021 12:58 9,7 C 11,7 C 11,2 C 84 % 1014,6 hPa 0,0 l/m 2 min 0 min 241 W/m 0,0 km/h (0 Bft) 93,62 %
04.02.2021 13:00 9,7 C 10,6 C 11,2 C 84 % 1014,6 hPa 0,0 l/m 2 min 0 min 386 W/m 0,0 km/h (0 Bft) 91,30 %
04.02.2021 13:02 9,6 C 11,7 C 11,7 C 84 % 1014,6 hPa 0,0 l/m 2 min 0 min 312 W/m 0,0 km/h (0 Bft) 91,49 %
04.02.2021 13:04 9,7 C 12,8 C 13,4 C 84 % 1014,6 hPa 0,0 l/m 2 min 0 min 402 W/m 0,0 km/h (0 Bft) 93,62 %
04.02.2021 13:06 9,7 C 13,3 C 13,9 C 85 % 1014,6 hPa 0,0 l/m 2 min 0 min 445 W/m 3,2 km/h (1 Bft) 95,74 %
04.02.2021 13:08 9,8 C 12,2 C 13,9 C 84 % 1014,6 hPa 0,0 l/m 2 min 0 min 392 W/m 3,2 km/h (1 Bft) 95,74 %
04.02.2021 13:10 9,8 C 12,8 C 13,9 C 84 % 1014,6 hPa 0,0 l/m 2 min 0 min 431 W/m 0,0 km/h (0 Bft) 95,65 %
04.02.2021 13:12 9,9 C 13,3 C 13,9 C 84 % 1014,6 hPa 0,0 l/m 2 min 0 min 337 W/m 0,0 km/h (0 Bft) 93,62 %
04.02.2021 13:14 10,0 C 13,9 C 13,9 C 84 % 1014,6 hPa 0,0 l/m 2 min 0 min 322 W/m 0,0 km/h (0 Bft) 95,74 %
04.02.2021 13:16 10,0 C 13,3 C 13,4 C 84 % 1014,5 hPa 0,0 l/m 2 min 0 min 353 W/m 3,2 km/h (1 Bft) 95,74 %
04.02.2021 13:18 10,1 C 13,9 C 13,9 C 84 % 1014,5 hPa 0,0 l/m 2 min 0 min 368 W/m 0,0 km/h (0 Bft) 95,74 %
04.02.2021 13:20 10,1 C 12,8 C 11,7 C 84 % 1014,6 hPa 0,0 l/m 2 min 0 min 270 W/m 6,4 km/h (2 Bft) 97,87 %
04.02.2021 13:22 10,2 C 12,8 C 11,7 C 83 % 1014,6 hPa 0,0 l/m 2 min 0 min 305 W/m 0,0 km/h (0 Bft) 97,83 %
04.02.2021 13:24 10,2 C 12,2 C 11,7 C 83 % 1014,6 hPa 0,0 l/m 2 min 0 min 312 W/m 3,2 km/h (1 Bft) 82,98 %
04.02.2021 13:26 10,2 C 12,8 C 12,3 C 82 % 1014,6 hPa 0,0 l/m 2 min 0 min 334 W/m 0,0 km/h (0 Bft) 66,67 %
04.02.2021 13:28 10,3 C 12,8 C 12,3 C 82 % 1014,6 hPa 0,0 l/m 2 min 0 min 329 W/m 0,0 km/h (0 Bft) 100,00 %
04.02.2021 13:30 10,3 C 11,7 C 11,7 C 82 % 1014,6 hPa 0,0 l/m 2 min 0 min 253 W/m 6,4 km/h (2 Bft) 100,00 %
04.02.2021 13:32 10,3 C 11,7 C 11,2 C 82 % 1014,6 hPa 0,0 l/m 2 min 0 min 209 W/m 0,0 km/h (0 Bft) 100,00 %
04.02.2021 13:34 10,3 C 11,1 C 10,0 C 81 % 1014,7 hPa 0,0 l/m 0 min 0 min 178 W/m 0,0 km/h (0 Bft) 97,83 %
04.02.2021 13:36 10,3 C 10,6 C 9,5 C 81 % 1014,6 hPa 0,0 l/m 0 min 0 min 183 W/m 0,0 km/h (0 Bft) 100,00 %
04.02.2021 13:38 10,3 C 10,0 C 9,5 C 81 % 1014,6 hPa 0,0 l/m 0 min 0 min 167 W/m 0,0 km/h (0 Bft) 98,11 %
04.02.2021 13:40 10,3 C 10,0 C 8,9 C 80 % 1014,6 hPa 0,0 l/m 0 min 0 min 156 W/m 0,0 km/h (0 Bft) 100,00 %
04.02.2021 13:42 10,2 C 10,0 C 8,4 C 80 % 1014,6 hPa 0,0 l/m 0 min 0 min 162 W/m 0,0 km/h (0 Bft) 100,00 %
04.02.2021 13:44 10,1 C 10,0 C 8,9 C 80 % 1014,6 hPa 0,0 l/m 0 min 0 min 173 W/m 0,0 km/h (0 Bft) 100,00 %
04.02.2021 13:46 10,1 C 10,0 C 8,9 C 80 % 1014,6 hPa 0,0 l/m 0 min 0 min 163 W/m 0,0 km/h (0 Bft) 100,00 %
04.02.2021 13:48 10,1 C 10,6 C 9,5 C 81 % 1014,6 hPa 0,0 l/m 0 min 0 min 171 W/m 0,0 km/h (0 Bft) 100,00 %
04.02.2021 13:50 10,1 C 11,1 C 10,0 C 81 % 1014,6 hPa 0,0 l/m 2 min 0 min 200 W/m 0,0 km/h (0 Bft) 100,00 %
04.02.2021 13:52 10,1 C 11,7 C 10,6 C 81 % 1014,6 hPa 0,0 l/m 2 min 0 min 307 W/m 3,2 km/h (1 Bft) 100,00 %
04.02.2021 13:54 10,1 C 11,1 C 10,0 C 81 % 1014,7 hPa 0,0 l/m 2 min 0 min 236 W/m 3,2 km/h (1 Bft) 100,00 %
04.02.2021 13:56 10,1 C 10,6 C 9,5 C 81 % 1014,7 hPa 0,0 l/m 2 min 0 min 183 W/m 12,9 km/h (3 Bft) 97,87 %
04.02.2021 13:58 10,1 C 10,0 C 8,9 C 81 % 1014,6 hPa 0,0 l/m 0 min 0 min 140 W/m 0,0 km/h (0 Bft) 100,00 %
04.02.2021 14:00 10,1 C 10,0 C 8,9 C 81 % 1014,6 hPa 0,0 l/m 0 min 0 min 127 W/m 3,2 km/h (1 Bft) 100,00 %
04.02.2021 14:02 10,1 C 10,0 C 8,4 C 81 % 1014,6 hPa 0,0 l/m 0 min 0 min 121 W/m 0,0 km/h (0 Bft) 100,00 %
04.02.2021 14:04 10,1 C 10,0 C 8,4 C 81 % 1014,6 hPa 0,0 l/m 0 min 0 min 117 W/m 0,0 km/h (0 Bft) 97,87 %
04.02.2021 14:06 10,1 C 9,4 C 7,8 C 80 % 1014,6 hPa 0,0 l/m 0 min 0 min 107 W/m 0,0 km/h (0 Bft) 100,00 %
04.02.2021 14:08 10,0 C 9,4 C 7,8 C 80 % 1014,6 hPa 0,0 l/m 0 min 0 min 99 W/m 0,0 km/h (0 Bft) 100,00 %
04.02.2021 14:10 10,0 C 9,4 C 7,8 C 80 % 1014,6 hPa 0,0 l/m 0 min 0 min 91 W/m 0,0 km/h (0 Bft) 100,00 %
04.02.2021 14:12 10,0 C 9,4 C 7,8 C 81 % 1014,6 hPa 0,0 l/m 0 min 0 min 89 W/m 0,0 km/h (0 Bft) 97,83 %
04.02.2021 14:14 9,9 C 10,0 C 8,4 C 81 % 1014,5 hPa 0,0 l/m 0 min 0 min 110 W/m 0,0 km/h (0 Bft) 100,00 %
04.02.2021 14:16 9,9 C 10,0 C 8,4 C 81 % 1014,5 hPa 0,0 l/m 0 min 0 min 98 W/m 0,0 km/h (0 Bft) 100,00 %
04.02.2021 14:18 9,9 C 9,4 C 7,8 C 80 % 1014,5 hPa 0,0 l/m 0 min 0 min 92 W/m 0,0 km/h (0 Bft) 97,87 %
04.02.2021 14:20 9,9 C 9,4 C 7,8 C 81 % 1014,4 hPa 0,0 l/m 0 min 0 min 94 W/m 0,0 km/h (0 Bft) 100,00 %
04.02.2021 14:22 9,9 C 10,0 C 7,8 C 81 % 1014,4 hPa 0,0 l/m 0 min 0 min 104 W/m 0,0 km/h (0 Bft) 100,00 %
04.02.2021 14:24 9,9 C 9,4 C 7,8 C 81 % 1014,4 hPa 0,0 l/m 0 min 0 min 110 W/m 0,0 km/h (0 Bft) 100,00 %
04.02.2021 14:26 9,8 C 9,4 C 7,8 C 80 % 1014,4 hPa 0,0 l/m 0 min 0 min 119 W/m 0,0 km/h (0 Bft) 100,00 %
04.02.2021 14:28 9,8 C 10,0 C 7,8 C 81 % 1014,5 hPa 0,0 l/m 0 min 0 min 147 W/m 0,0 km/h (0 Bft) 100,00 %
04.02.2021 14:30 9,8 C 10,0 C 7,8 C 81 % 1014,5 hPa 0,0 l/m 0 min 0 min 150 W/m 0,0 km/h (0 Bft) 100,00 %
04.02.2021 14:32 9,8 C 10,0 C 8,4 C 82 % 1014,4 hPa 0,0 l/m 0 min 0 min 150 W/m 0,0 km/h (0 Bft) 100,00 %
04.02.2021 14:34 9,8 C 10,0 C 8,4 C 82 % 1014,4 hPa 0,0 l/m 0 min 0 min 162 W/m 3,2 km/h (1 Bft) 100,00 %
04.02.2021 14:36 9,8 C 10,0 C 8,4 C 82 % 1014,4 hPa 0,0 l/m 0 min 0 min 161 W/m 0,0 km/h (0 Bft) 97,83 %
04.02.2021 14:38 9,9 C 10,6 C 8,9 C 82 % 1014,4 hPa 0,0 l/m 2 min 0 min 177 W/m 0,0 km/h (0 Bft) 100,00 %
04.02.2021 14:40 9,9 C 11,7 C 9,5 C 82 % 1014,4 hPa 0,0 l/m 2 min 0 min 221 W/m 0,0 km/h (0 Bft) 100,00 %
04.02.2021 14:42 9,9 C 11,7 C 10,6 C 82 % 1014,4 hPa 0,0 l/m 2 min 0 min 255 W/m 0,0 km/h (0 Bft) 97,87 %
04.02.2021 14:44 9,9 C 12,8 C 11,7 C 81 % 1014,4 hPa 0,0 l/m 2 min 0 min 293 W/m 0,0 km/h (0 Bft) 100,00 %
04.02.2021 14:46 9,9 C 13,9 C 12,3 C 81 % 1014,4 hPa 0,0 l/m 2 min 0 min 296 W/m 3,2 km/h (1 Bft) 100,00 %
04.02.2021 14:48 10,0 C 13,9 C 12,3 C 81 % 1014,3 hPa 0,0 l/m 2 min 0 min 295 W/m 0,0 km/h (0 Bft) 100,00 %
04.02.2021 14:50 10,0 C 14,4 C 12,3 C 81 % 1014,3 hPa 0,0 l/m 2 min 0 min 302 W/m 0,0 km/h (0 Bft) 100,00 %
04.02.2021 14:52 10,1 C 14,4 C 11,7 C 81 % 1014,3 hPa 0,0 l/m 2 min 0 min 260 W/m 0,0 km/h (0 Bft) 100,00 %
04.02.2021 14:54 10,1 C 14,4 C 11,7 C 81 % 1014,3 hPa 0,0 l/m 2 min 0 min 246 W/m 0,0 km/h (0 Bft) 100,00 %
04.02.2021 14:56 10,3 C 12,2 C 10,6 C 80 % 1014,3 hPa 0,0 l/m 2 min 0 min 180 W/m 0,0 km/h (0 Bft) 100,00 %
04.02.2021 14:58 10,3 C 11,7 C 10,0 C 80 % 1014,3 hPa 0,0 l/m 0 min 0 min 139 W/m 0,0 km/h (0 Bft) 97,87 %
04.02.2021 15:00 10,4 C 11,7 C 9,5 C 80 % 1014,3 hPa 0,0 l/m 0 min 0 min 119 W/m 0,0 km/h (0 Bft) 97,83 %
04.02.2021 15:02 10,4 C 11,1 C 8,9 C 79 % 1014,3 hPa 0,0 l/m 0 min 0 min 109 W/m 0,0 km/h (0 Bft) 95,74 %
04.02.2021 15:04 10,5 C 11,1 C 8,9 C 79 % 1014,3 hPa 0,0 l/m 0 min 0 min 101 W/m 0,0 km/h (0 Bft) 97,87 %
04.02.2021 15:06 10,5 C 10,6 C 8,4 C 79 % 1014,3 hPa 0,0 l/m 0 min 0 min 97 W/m 0,0 km/h (0 Bft) 97,87 %
04.02.2021 15:08 10,5 C 10,6 C 8,4 C 79 % 1014,3 hPa 0,0 l/m 0 min 0 min 94 W/m 0,0 km/h (0 Bft) 97,87 %
04.02.2021 15:10 10,5 C 10,6 C 8,4 C 78 % 1014,3 hPa 0,0 l/m 0 min 0 min 90 W/m 0,0 km/h (0 Bft) 97,87 %
04.02.2021 15:12 10,6 C 10,6 C 8,4 C 78 % 1014,3 hPa 0,0 l/m 0 min 0 min 112 W/m 0,0 km/h (0 Bft) 97,83 %
04.02.2021 15:14 10,6 C 11,1 C 8,9 C 78 % 1014,3 hPa 0,0 l/m 2 min 0 min 194 W/m 0,0 km/h (0 Bft) 95,74 %
04.02.2021 15:16 10,6 C 11,7 C 9,5 C 78 % 1014,2 hPa 0,0 l/m 2 min 0 min 198 W/m 0,0 km/h (0 Bft) 95,74 %
04.02.2021 15:18 10,6 C 11,7 C 9,5 C 78 % 1014,3 hPa 0,0 l/m 2 min 0 min 176 W/m 0,0 km/h (0 Bft) 97,87 %
04.02.2021 15:20 10,6 C 11,7 C 9,5 C 77 % 1014,3 hPa 0,0 l/m 2 min 0 min 163 W/m 0,0 km/h (0 Bft) 97,87 %
04.02.2021 15:22 10,6 C 11,7 C 9,5 C 76 % 1014,2 hPa 0,0 l/m 2 min 0 min 137 W/m 0,0 km/h (0 Bft) 97,83 %
04.02.2021 15:24 10,6 C 11,1 C 9,5 C 76 % 1014,2 hPa 0,0 l/m 2 min 0 min 149 W/m 0,0 km/h (0 Bft) 95,74 %
04.02.2021 15:26 10,6 C 11,7 C 10,0 C 76 % 1014,3 hPa 0,0 l/m 2 min 0 min 155 W/m 0,0 km/h (0 Bft) 95,74 %
04.02.2021 15:28 10,7 C 11,1 C 9,5 C 76 % 1014,2 hPa 0,0 l/m 2 min 0 min 128 W/m 0,0 km/h (0 Bft) 95,74 %
04.02.2021 15:30 10,7 C 11,1 C 8,9 C 76 % 1014,3 hPa 0,0 l/m 0 min 0 min 114 W/m 0,0 km/h (0 Bft) 95,74 %
04.02.2021 15:32 10,7 C 10,6 C 8,9 C 76 % 1014,3 hPa 0,0 l/m 0 min 0 min 109 W/m 0,0 km/h (0 Bft) 89,36 %
04.02.2021 15:34 10,7 C 10,6 C 8,9 C 76 % 1014,3 hPa 0,0 l/m 0 min 0 min 98 W/m 3,2 km/h (1 Bft) 95,65 %
04.02.2021 15:36 10,6 C 10,6 C 8,4 C 76 % 1014,2 hPa 0,0 l/m 0 min 0 min 91 W/m 0,0 km/h (0 Bft) 97,87 %
04.02.2021 15:38 10,6 C 10,0 C 8,4 C 76 % 1014,2 hPa 0,0 l/m 0 min 0 min 91 W/m 0,0 km/h (0 Bft) 97,87 %
04.02.2021 15:40 10,6 C 10,0 C 8,4 C 76 % 1014,2 hPa 0,0 l/m 0 min 0 min 88 W/m 0,0 km/h (0 Bft) 97,87 %
04.02.2021 15:42 10,6 C 10,0 C 8,4 C 76 % 1014,2 hPa 0,0 l/m 0 min 0 min 83 W/m 3,2 km/h (1 Bft) 95,74 %
04.02.2021 15:44 10,6 C 10,0 C 7,8 C 77 % 1014,2 hPa 0,0 l/m 0 min 0 min 80 W/m 0,0 km/h (0 Bft) 95,74 %
04.02.2021 15:46 10,5 C 10,0 C 7,8 C 77 % 1014,1 hPa 0,0 l/m 0 min 0 min 77 W/m 0,0 km/h (0 Bft) 97,83 %
04.02.2021 15:48 10,5 C 10,0 C 7,8 C 77 % 1014,1 hPa 0,0 l/m 0 min 0 min 75 W/m 0,0 km/h (0 Bft) 97,87 %
04.02.2021 15:50 10,5 C 10,0 C 7,8 C 77 % 1014,1 hPa 0,0 l/m 0 min 0 min 73 W/m 0,0 km/h (0 Bft) 97,87 %
04.02.2021 15:52 10,5 C 10,0 C 7,8 C 77 % 1014,1 hPa 0,0 l/m 0 min 0 min 72 W/m 0,0 km/h (0 Bft) 91,49 %
04.02.2021 15:54 10,5 C 10,0 C 7,8 C 77 % 1014,1 hPa 0,0 l/m 0 min 0 min 73 W/m 0,0 km/h (0 Bft) 93,62 %
04.02.2021 15:56 10,5 C 10,0 C 7,8 C 77 % 1014,1 hPa 0,0 l/m 0 min 0 min 71 W/m 0,0 km/h (0 Bft) 95,92 %
04.02.2021 15:58 10,4 C 10,0 C 7,8 C 77 % 1014,1 hPa 0,0 l/m 0 min 0 min 66 W/m 0,0 km/h (0 Bft) 95,65 %
04.02.2021 16:00 10,4 C 10,0 C 7,8 C 77 % 1014,1 hPa 0,0 l/m 0 min 0 min 58 W/m 0,0 km/h (0 Bft) 95,74 %
04.02.2021 16:02 10,4 C 10,0 C 7,3 C 77 % 1014,1 hPa 0,0 l/m 0 min 0 min 51 W/m 0,0 km/h (0 Bft) 97,87 %
04.02.2021 16:04 10,4 C 9,4 C 7,3 C 78 % 1014,1 hPa 0,0 l/m 0 min 0 min 46 W/m 0,0 km/h (0 Bft) 97,87 %
04.02.2021 16:06 10,3 C 9,4 C 7,3 C 78 % 1014,1 hPa 0,0 l/m 0 min 0 min 43 W/m 0,0 km/h (0 Bft) 95,74 %
04.02.2021 16:08 10,3 C 9,4 C 7,3 C 78 % 1014,1 hPa 0,0 l/m 0 min 0 min 41 W/m 0,0 km/h (0 Bft) 95,65 %
04.02.2021 16:10 10,3 C 9,4 C 7,3 C 78 % 1014,1 hPa 0,0 l/m 0 min 0 min 40 W/m 0,0 km/h (0 Bft) 95,74 %
04.02.2021 16:12 10,2 C 9,4 C 7,3 C 78 % 1014,1 hPa 0,0 l/m 0 min 0 min 40 W/m 0,0 km/h (0 Bft) 95,74 %
04.02.2021 16:14 10,2 C 9,4 C 7,3 C 79 % 1014,1 hPa 0,0 l/m 0 min 0 min 40 W/m 0,0 km/h (0 Bft) 95,74 %
04.02.2021 16:16 10,1 C 9,4 C 6,7 C 79 % 1014,1 hPa 0,0 l/m 0 min 0 min 40 W/m 0,0 km/h (0 Bft) 95,74 %
04.02.2021 16:18 10,1 C 9,4 C 6,7 C 79 % 1014,0 hPa 0,0 l/m 0 min 0 min 39 W/m 0,0 km/h (0 Bft) 95,74 %
04.02.2021 16:20 10,1 C 9,4 C 6,7 C 79 % 1014,0 hPa 0,0 l/m 0 min 0 min 37 W/m 0,0 km/h (0 Bft) 95,65 %
04.02.2021 16:22 10,0 C 8,9 C 6,7 C 80 % 1014,1 hPa 0,0 l/m 0 min 0 min 36 W/m 0,0 km/h (0 Bft) 93,62 %
04.02.2021 16:24 10,0 C 8,9 C 6,7 C 80 % 1014,1 hPa 0,0 l/m 0 min 0 min 34 W/m 0,0 km/h (0 Bft) 95,74 %
04.02.2021 16:26 10,0 C 8,9 C 6,7 C 80 % 1014,1 hPa 0,0 l/m 0 min 0 min 31 W/m 0,0 km/h (0 Bft) 95,74 %
04.02.2021 16:28 9,9 C 8,9 C 6,7 C 80 % 1014,2 hPa 0,0 l/m 0 min 0 min 28 W/m 0,0 km/h (0 Bft) 97,87 %
04.02.2021 16:30 9,9 C 8,9 C 6,7 C 80 % 1014,1 hPa 0,0 l/m 0 min 0 min 25 W/m 0,0 km/h (0 Bft) 97,87 %
04.02.2021 16:32 9,9 C 8,9 C 6,7 C 81 % 1014,1 hPa 0,0 l/m 0 min 0 min 25 W/m 0,0 km/h (0 Bft) 97,87 %
04.02.2021 16:34 9,9 C 8,9 C 6,7 C 81 % 1014,1 hPa 0,0 l/m 0 min 0 min 25 W/m 0,0 km/h (0 Bft) 97,87 %
04.02.2021 16:36 9,9 C 8,9 C 6,7 C 81 % 1014,1 hPa 0,0 l/m 0 min 0 min 25 W/m 0,0 km/h (0 Bft) 97,87 %
04.02.2021 16:38 9,8 C 8,9 C 6,7 C 80 % 1014,1 hPa 0,0 l/m 0 min 0 min 25 W/m 0,0 km/h (0 Bft) 95,74 %
04.02.2021 16:40 9,8 C 8,9 C 6,2 C 80 % 1014,1 hPa 0,0 l/m 0 min 0 min 25 W/m 0,0 km/h (0 Bft) 97,87 %
04.02.2021 16:42 9,8 C 8,9 C 6,2 C 80 % 1014,1 hPa 0,0 l/m 0 min 0 min 23 W/m 0,0 km/h (0 Bft) 97,87 %
04.02.2021 16:44 9,7 C 8,9 C 6,2 C 80 % 1014,1 hPa 0,0 l/m 0 min 0 min 22 W/m 0,0 km/h (0 Bft) 100,00 %
04.02.2021 16:46 9,7 C 8,9 C 6,2 C 80 % 1014,1 hPa 0,0 l/m 0 min 0 min 21 W/m 0,0 km/h (0 Bft) 100,00 %
04.02.2021 16:48 9,6 C 8,9 C 6,2 C 81 % 1014,1 hPa 0,0 l/m 0 min 0 min 19 W/m 0,0 km/h (0 Bft) 97,87 %
04.02.2021 16:50 9,6 C 8,9 C 6,2 C 81 % 1014,1 hPa 0,0 l/m 0 min 0 min 18 W/m 0,0 km/h (0 Bft) 100,00 %
04.02.2021 16:52 9,6 C 8,3 C 6,2 C 81 % 1014,1 hPa 0,0 l/m 0 min 0 min 17 W/m 0,0 km/h (0 Bft) 100,00 %
04.02.2021 16:54 9,6 C 8,3 C 6,2 C 81 % 1014,1 hPa 0,0 l/m 0 min 0 min 14 W/m 0,0 km/h (0 Bft) 97,87 %
04.02.2021 16:56 9,6 C 8,3 C 6,2 C 81 % 1014,0 hPa 0,0 l/m 0 min 0 min 14 W/m 0,0 km/h (0 Bft) 100,00 %
04.02.2021 16:58 9,5 C 8,3 C 6,2 C 81 % 1014,0 hPa 0,0 l/m 0 min 0 min 14 W/m 0,0 km/h (0 Bft) 100,00 %
04.02.2021 17:00 9,5 C 8,3 C 6,2 C 81 % 1014,0 hPa 0,0 l/m 0 min 0 min 14 W/m 0,0 km/h (0 Bft) 100,00 %
04.02.2021 17:02 9,5 C 8,3 C 5,6 C 81 % 1014,0 hPa 0,0 l/m 0 min 0 min 14 W/m 0,0 km/h (0 Bft) 97,87 %
04.02.2021 17:04 9,5 C 8,3 C 5,6 C 81 % 1014,0 hPa 0,0 l/m 0 min 0 min 13 W/m 0,0 km/h (0 Bft) 100,00 %
04.02.2021 17:06 9,5 C 8,3 C 5,6 C 81 % 1014,0 hPa 0,0 l/m 0 min 0 min 12 W/m 0,0 km/h (0 Bft) 100,00 %
04.02.2021 17:08 9,5 C 8,3 C 5,6 C 81 % 1014,0 hPa 0,0 l/m 0 min 0 min 11 W/m 0,0 km/h (0 Bft) 97,83 %
04.02.2021 17:10 9,5 C 7,8 C 5,6 C 82 % 1014,0 hPa 0,0 l/m 0 min 0 min 11 W/m 0,0 km/h (0 Bft) 100,00 %
04.02.2021 17:12 9,5 C 7,8 C 5,6 C 82 % 1014,0 hPa 0,0 l/m 0 min 0 min 9 W/m 0,0 km/h (0 Bft) 100,00 %
04.02.2021 17:14 9,4 C 7,8 C 5,6 C 82 % 1014,0 hPa 0,0 l/m 0 min 0 min 9 W/m 0,0 km/h (0 Bft) 100,00 %
04.02.2021 17:16 9,4 C 7,8 C 5,6 C 82 % 1013,9 hPa 0,0 l/m 0 min 0 min 9 W/m 0,0 km/h (0 Bft) 100,00 %
04.02.2021 17:18 9,4 C 7,8 C 5,6 C 82 % 1014,0 hPa 0,0 l/m 0 min 0 min 7 W/m 0,0 km/h (0 Bft) 100,00 %
04.02.2021 17:20 9,4 C 7,8 C 5,0 C 82 % 1014,0 hPa 0,0 l/m 0 min 0 min 7 W/m 0,0 km/h (0 Bft) 100,00 %
04.02.2021 17:22 9,4 C 7,8 C 5,0 C 82 % 1014,0 hPa 0,0 l/m 0 min 0 min 5 W/m 0,0 km/h (0 Bft) 100,00 %
04.02.2021 17:24 9,3 C 7,8 C 5,0 C 82 % 1013,9 hPa 0,0 l/m 0 min 0 min 5 W/m 0,0 km/h (0 Bft) 100,00 %
04.02.2021 17:26 9,3 C 7,2 C 5,0 C 82 % 1014,0 hPa 0,0 l/m 0 min 0 min 5 W/m 0,0 km/h (0 Bft) 100,00 %
04.02.2021 17:28 9,3 C 7,2 C 5,0 C 82 % 1013,9 hPa 0,0 l/m 0 min 0 min 1 W/m 0,0 km/h (0 Bft) 100,00 %
04.02.2021 17:30 9,2 C 7,2 C 5,0 C 82 % 1013,9 hPa 0,0 l/m 0 min 0 min 0 W/m 0,0 km/h (0 Bft) 100,00 %
04.02.2021 17:32 9,1 C 7,2 C 5,0 C 82 % 1013,9 hPa 0,0 l/m 0 min 0 min 0 W/m 0,0 km/h (0 Bft) 100,00 %
04.02.2021 17:34 9,1 C 7,2 C 5,0 C 83 % 1013,9 hPa 0,0 l/m 0 min 0 min 0 W/m 0,0 km/h (0 Bft) 100,00 %
04.02.2021 17:36 9,1 C 7,2 C 5,0 C 83 % 1013,9 hPa 0,0 l/m 0 min 0 min 0 W/m 0,0 km/h (0 Bft) 100,00 %
04.02.2021 17:38 9,0 C 7,2 C 5,0 C 83 % 1013,9 hPa 0,0 l/m 0 min 0 min 0 W/m 0,0 km/h (0 Bft) 97,87 %
04.02.2021 17:40 9,0 C 7,2 C 5,0 C 83 % 1013,9 hPa 0,0 l/m 0 min 0 min 0 W/m 0,0 km/h (0 Bft) 95,74 %
04.02.2021 17:42 9,0 C 7,2 C 5,0 C 83 % 1013,9 hPa 0,0 l/m 0 min 0 min 0 W/m 0,0 km/h (0 Bft) 97,87 %
04.02.2021 17:44 9,0 C 7,2 C 5,0 C 83 % 1013,9 hPa 0,0 l/m 0 min 0 min 0 W/m 0,0 km/h (0 Bft) 97,83 %
04.02.2021 17:46 8,9 C 7,2 C 4,5 C 83 % 1013,9 hPa 0,0 l/m 0 min 0 min 0 W/m 0,0 km/h (0 Bft) 97,87 %
04.02.2021 17:48 8,9 C 7,2 C 4,5 C 83 % 1013,9 hPa 0,0 l/m 0 min 0 min 0 W/m 0,0 km/h (0 Bft) 95,74 %
04.02.2021 17:50 8,8 C 6,7 C 4,5 C 83 % 1013,9 hPa 0,0 l/m 0 min 0 min 0 W/m 0,0 km/h (0 Bft) 95,74 %
04.02.2021 17:52 8,8 C 6,7 C 4,5 C 83 % 1013,9 hPa 0,0 l/m 0 min 0 min 0 W/m 0,0 km/h (0 Bft) 97,87 %
04.02.2021 17:54 8,8 C 6,7 C 4,5 C 83 % 1013,8 hPa 0,0 l/m 0 min 0 min 0 W/m 0,0 km/h (0 Bft) 97,87 %
04.02.2021 17:56 8,7 C 6,7 C 4,5 C 83 % 1013,9 hPa 0,0 l/m 0 min 0 min 0 W/m 0,0 km/h (0 Bft) 97,83 %
04.02.2021 17:58 8,6 C 6,7 C 4,5 C 83 % 1013,9 hPa 0,0 l/m 0 min 0 min 0 W/m 0,0 km/h (0 Bft) 97,87 %
04.02.2021 18:00 8,6 C 6,7 C 4,5 C 83 % 1013,8 hPa 0,0 l/m 0 min 0 min 0 W/m 0,0 km/h (0 Bft) 93,62 %
04.02.2021 18:02 8,6 C 6,7 C 4,5 C 83 % 1013,9 hPa 0,0 l/m 0 min 0 min 0 W/m 0,0 km/h (0 Bft) 95,74 %
04.02.2021 18:04 8,5 C 6,7 C 4,5 C 84 % 1013,9 hPa 0,0 l/m 0 min 0 min 0 W/m 0,0 km/h (0 Bft) 97,87 %
04.02.2021 18:08 8,4 C 6,7 C 4,5 C 84 % 1013,9 hPa 0,0 l/m 0 min 0 min 0 W/m 0,0 km/h (0 Bft) 95,70 %
04.02.2021 18:10 8,4 C 6,7 C 4,5 C 84 % 1013,9 hPa 0,0 l/m 0 min 0 min 0 W/m 0,0 km/h (0 Bft) 97,87 %
04.02.2021 18:12 8,4 C 6,7 C 4,5 C 84 % 1013,9 hPa 0,0 l/m 0 min 0 min 0 W/m 0,0 km/h (0 Bft) 97,87 %
04.02.2021 18:14 8,3 C 6,7 C 4,5 C 84 % 1013,8 hPa 0,0 l/m 0 min 0 min 0 W/m 0,0 km/h (0 Bft) 97,87 %
04.02.2021 18:16 8,3 C 6,7 C 4,5 C 84 % 1013,8 hPa 0,0 l/m 0 min 0 min 0 W/m 0,0 km/h (0 Bft) 95,74 %
04.02.2021 18:18 8,2 C 6,7 C 3,9 C 84 % 1013,7 hPa 0,0 l/m 0 min 0 min 0 W/m 0,0 km/h (0 Bft) 95,74 %
04.02.2021 18:20 8,2 C 6,7 C 3,9 C 84 % 1013,7 hPa 0,0 l/m 0 min 0 min 0 W/m 0,0 km/h (0 Bft) 95,65 %
04.02.2021 18:22 8,1 C 6,7 C 3,9 C 85 % 1013,7 hPa 0,0 l/m 0 min 0 min 0 W/m 0,0 km/h (0 Bft) 97,87 %
04.02.2021 18:24 8,1 C 6,7 C 3,9 C 84 % 1013,7 hPa 0,0 l/m 0 min 0 min 0 W/m 0,0 km/h (0 Bft) 97,87 %
04.02.2021 18:26 8,1 C 6,1 C 3,9 C 85 % 1013,7 hPa 0,0 l/m 0 min 0 min 0 W/m 0,0 km/h (0 Bft) 93,62 %
04.02.2021 18:28 8,0 C 6,1 C 3,9 C 85 % 1013,7 hPa 0,0 l/m 0 min 0 min 0 W/m 0,0 km/h (0 Bft) 95,74 %
04.02.2021 18:30 8,0 C 6,1 C 3,9 C 85 % 1013,7 hPa 0,0 l/m 0 min 0 min 0 W/m 0,0 km/h (0 Bft) 100,00 %
04.02.2021 18:32 8,0 C 6,1 C 3,9 C 85 % 1013,7 hPa 0,0 l/m 0 min 0 min 0 W/m 0,0 km/h (0 Bft) 93,48 %
04.02.2021 18:34 7,9 C 6,1 C 3,9 C 85 % 1013,7 hPa 0,0 l/m 0 min 0 min 0 W/m 0,0 km/h (0 Bft) 97,87 %
04.02.2021 18:36 7,9 C 6,1 C 3,9 C 85 % 1013,7 hPa 0,0 l/m 0 min 0 min 0 W/m 0,0 km/h (0 Bft) 95,74 %
04.02.2021 18:38 7,8 C 6,1 C 3,9 C 85 % 1013,7 hPa 0,0 l/m 0 min 0 min 0 W/m 0,0 km/h (0 Bft) 97,87 %
04.02.2021 18:40 7,8 C 6,1 C 3,9 C 85 % 1013,7 hPa 0,0 l/m 0 min 0 min 0 W/m 0,0 km/h (0 Bft) 97,87 %
04.02.2021 18:42 7,8 C 6,1 C 3,9 C 85 % 1013,7 hPa 0,0 l/m 0 min 0 min 0 W/m 0,0 km/h (0 Bft) 97,83 %
04.02.2021 18:44 7,7 C 6,1 C 3,9 C 85 % 1013,6 hPa 0,0 l/m 0 min 0 min 0 W/m 0,0 km/h (0 Bft) 97,87 %
04.02.2021 18:46 7,7 C 6,1 C 3,9 C 85 % 1013,7 hPa 0,0 l/m 0 min 0 min 0 W/m 0,0 km/h (0 Bft) 97,87 %
04.02.2021 18:48 7,6 C 6,1 C 3,9 C 85 % 1013,7 hPa 0,0 l/m 0 min 0 min 0 W/m 0,0 km/h (0 Bft) 97,87 %
04.02.2021 18:50 7,6 C 6,1 C 3,9 C 85 % 1013,7 hPa 0,0 l/m 0 min 0 min 0 W/m 0,0 km/h (0 Bft) 97,87 %
04.02.2021 18:52 7,5 C 6,1 C 3,9 C 85 % 1013,7 hPa 0,0 l/m 0 min 0 min 0 W/m 0,0 km/h (0 Bft) 95,74 %
04.02.2021 18:54 7,5 C 5,6 C 3,9 C 86 % 1013,8 hPa 0,0 l/m 0 min 0 min 0 W/m 0,0 km/h (0 Bft) 97,83 %
04.02.2021 18:56 7,5 C 5,6 C 3,9 C 85 % 1013,8 hPa 0,0 l/m 0 min 0 min 0 W/m 0,0 km/h (0 Bft) 97,87 %
04.02.2021 18:58 7,4 C 5,6 C 3,9 C 85 % 1013,9 hPa 0,0 l/m 0 min 0 min 0 W/m 0,0 km/h (0 Bft) 97,87 %
04.02.2021 19:00 7,4 C 5,6 C 3,9 C 86 % 1013,9 hPa 0,0 l/m 0 min 0 min 0 W/m 0,0 km/h (0 Bft) 97,87 %
04.02.2021 19:02 7,4 C 5,6 C 3,9 C 86 % 1013,9 hPa 0,0 l/m 0 min 0 min 0 W/m 0,0 km/h (0 Bft) 97,87 %
04.02.2021 19:04 7,3 C 5,6 C 3,9 C 86 % 1013,9 hPa 0,0 l/m 0 min 0 min 0 W/m 0,0 km/h (0 Bft) 97,87 %
04.02.2021 19:06 7,3 C 5,6 C 3,9 C 86 % 1013,9 hPa 0,0 l/m 0 min 0 min 0 W/m 0,0 km/h (0 Bft) 97,83 %
04.02.2021 19:08 7,3 C 5,6 C 3,9 C 86 % 1013,9 hPa 0,0 l/m 0 min 0 min 0 W/m 0,0 km/h (0 Bft) 95,74 %
04.02.2021 19:10 7,2 C 5,6 C 3,9 C 86 % 1013,8 hPa 0,0 l/m 0 min 0 min 0 W/m 0,0 km/h (0 Bft) 100,00 %
04.02.2021 19:12 7,2 C 5,6 C 3,9 C 86 % 1013,8 hPa 0,0 l/m 0 min 0 min 0 W/m 0,0 km/h (0 Bft) 100,00 %
04.02.2021 19:14 7,1 C 5,6 C 3,9 C 86 % 1013,8 hPa 0,0 l/m 0 min 0 min 0 W/m 0,0 km/h (0 Bft) 53,49 %
04.02.2021 19:16 7,1 C 5,6 C 3,9 C 86 % 1013,8 hPa 0,0 l/m 0 min 0 min 0 W/m 0,0 km/h (0 Bft) 100,00 %
04.02.2021 19:18 7,1 C 5,6 C 3,9 C 87 % 1013,8 hPa 0,0 l/m 0 min 0 min 0 W/m 0,0 km/h (0 Bft) 100,00 %
04.02.2021 19:20 7,1 C 5,6 C 3,9 C 87 % 1013,8 hPa 0,0 l/m 0 min 0 min 0 W/m 0,0 km/h (0 Bft) 97,87 %
04.02.2021 19:22 7,0 C 5,6 C 3,9 C 87 % 1013,9 hPa 0,0 l/m 0 min 0 min 0 W/m 0,0 km/h (0 Bft) 100,00 %
04.02.2021 19:24 7,0 C 5,6 C 3,9 C 87 % 1013,9 hPa 0,0 l/m 0 min 0 min 0 W/m 0,0 km/h (0 Bft) 97,87 %
04.02.2021 19:26 7,0 C 6,1 C 3,9 C 87 % 1013,9 hPa 0,0 l/m 0 min 0 min 0 W/m 0,0 km/h (0 Bft) 97,92 %
04.02.2021 19:28 7,0 C 6,1 C 3,9 C 87 % 1013,8 hPa 0,0 l/m 0 min 0 min 0 W/m 0,0 km/h (0 Bft) 100,00 %
04.02.2021 19:30 6,9 C 6,1 C 3,9 C 87 % 1013,8 hPa 0,0 l/m 0 min 0 min 0 W/m 0,0 km/h (0 Bft) 97,87 %
04.02.2021 19:32 6,9 C 6,1 C 3,9 C 88 % 1013,8 hPa 0,0 l/m 0 min 0 min 0 W/m 0,0 km/h (0 Bft) 100,00 %
04.02.2021 19:34 6,9 C 6,1 C 3,9 C 88 % 1013,7 hPa 0,0 l/m 0 min 0 min 0 W/m 0,0 km/h (0 Bft) 100,00 %
04.02.2021 19:36 6,9 C 6,1 C 3,9 C 88 % 1013,7 hPa 0,0 l/m 0 min 0 min 0 W/m 0,0 km/h (0 Bft) 100,00 %
04.02.2021 19:38 6,9 C 6,1 C 3,9 C 88 % 1013,7 hPa 0,0 l/m 0 min 0 min 0 W/m 0,0 km/h (0 Bft) 100,00 %
04.02.2021 19:40 6,9 C 6,1 C 3,9 C 88 % 1013,8 hPa 0,0 l/m 0 min 0 min 0 W/m 0,0 km/h (0 Bft) 100,00 %
04.02.2021 19:42 6,9 C 6,1 C 3,9 C 88 % 1013,8 hPa 0,0 l/m 0 min 0 min 0 W/m 0,0 km/h (0 Bft) 100,00 %
04.02.2021 19:44 6,9 C 6,1 C 3,9 C 88 % 1013,8 hPa 0,0 l/m 0 min 0 min 0 W/m 0,0 km/h (0 Bft) 100,00 %
04.02.2021 19:46 6,8 C 6,1 C 3,9 C 88 % 1013,7 hPa 0,0 l/m 0 min 0 min 0 W/m 0,0 km/h (0 Bft) 97,87 %
04.02.2021 19:48 6,8 C 6,1 C 3,9 C 88 % 1013,7 hPa 0,0 l/m 0 min 0 min 0 W/m 0,0 km/h (0 Bft) 100,00 %
04.02.2021 19:50 6,8 C 6,1 C 3,9 C 88 % 1013,8 hPa 0,0 l/m 0 min 0 min 0 W/m 0,0 km/h (0 Bft) 97,87 %
04.02.2021 19:52 6,8 C 6,1 C 3,9 C 89 % 1013,7 hPa 0,0 l/m 0 min 0 min 0 W/m 0,0 km/h (0 Bft) 100,00 %
04.02.2021 19:54 6,8 C 6,1 C 3,9 C 89 % 1013,7 hPa 0,0 l/m 0 min 0 min 0 W/m 0,0 km/h (0 Bft) 100,00 %
04.02.2021 19:56 6,8 C 6,1 C 3,9 C 89 % 1013,7 hPa 0,0 l/m 0 min 0 min 0 W/m 0,0 km/h (0 Bft) 100,00 %
04.02.2021 19:58 6,8 C 6,1 C 3,9 C 89 % 1013,7 hPa 0,0 l/m 0 min 0 min 0 W/m 0,0 km/h (0 Bft) 100,00 %
04.02.2021 20:00 6,8 C 6,1 C 3,9 C 89 % 1013,8 hPa 0,0 l/m 0 min 0 min 0 W/m 0,0 km/h (0 Bft) 100,00 %
04.02.2021 20:02 6,8 C 6,1 C 3,9 C 89 % 1013,9 hPa 0,0 l/m 0 min 0 min 0 W/m 0,0 km/h (0 Bft) 100,00 %
04.02.2021 20:04 6,8 C 6,1 C 3,9 C 89 % 1013,9 hPa 0,0 l/m 0 min 0 min 0 W/m 0,0 km/h (0 Bft) 100,00 %
04.02.2021 20:06 6,8 C 6,1 C 3,9 C 89 % 1014,0 hPa 0,0 l/m 0 min 0 min 0 W/m 0,0 km/h (0 Bft) 100,00 %
04.02.2021 20:08 6,8 C 6,1 C 3,9 C 89 % 1013,9 hPa 0,0 l/m 0 min 0 min 0 W/m 0,0 km/h (0 Bft) 100,00 %
04.02.2021 20:10 6,7 C 6,1 C 3,9 C 89 % 1013,9 hPa 0,0 l/m 0 min 0 min 0 W/m 0,0 km/h (0 Bft) 100,00 %
04.02.2021 20:12 6,7 C 6,1 C 3,9 C 89 % 1013,9 hPa 0,0 l/m 0 min 0 min 0 W/m 0,0 km/h (0 Bft) 100,00 %
04.02.2021 20:14 6,7 C 6,1 C 3,9 C 89 % 1013,9 hPa 0,0 l/m 0 min 0 min 0 W/m 0,0 km/h (0 Bft) 100,00 %
04.02.2021 20:16 6,7 C 6,1 C 3,9 C 89 % 1013,9 hPa 0,0 l/m 0 min 0 min 0 W/m 0,0 km/h (0 Bft) 98,28 %
04.02.2021 20:18 6,7 C 6,1 C 3,9 C 89 % 1014,0 hPa 0,0 l/m 0 min 0 min 0 W/m 0,0 km/h (0 Bft) 100,00 %
04.02.2021 20:20 6,7 C 6,1 C 3,9 C 89 % 1013,9 hPa 0,0 l/m 0 min 0 min 0 W/m 0,0 km/h (0 Bft) 100,00 %
04.02.2021 20:22 6,7 C 6,1 C 3,9 C 89 % 1013,9 hPa 0,0 l/m 0 min 0 min 0 W/m 0,0 km/h (0 Bft) 100,00 %
04.02.2021 20:24 6,7 C 6,1 C 3,9 C 90 % 1013,9 hPa 0,0 l/m 0 min 0 min 0 W/m 0,0 km/h (0 Bft) 100,00 %
04.02.2021 20:26 6,7 C 6,1 C 3,9 C 90 % 1013,8 hPa 0,0 l/m 0 min 0 min 0 W/m 0,0 km/h (0 Bft) 97,87 %
04.02.2021 20:27 6,7 C 6,1 C 3,9 C 90 % 1013,7 hPa 0,0 l/m 0 min 0 min 0 W/m 0,0 km/h (0 Bft) 100,00 %
04.02.2021 20:30 6,7 C 6,1 C 3,9 C 90 % 1013,7 hPa 0,0 l/m 0 min 0 min 0 W/m 0,0 km/h (0 Bft) 64,91 %
04.02.2021 20:32 6,7 C 6,1 C 3,9 C 90 % 1013,7 hPa 0,0 l/m 0 min 0 min 0 W/m 0,0 km/h (0 Bft) 97,87 %
04.02.2021 20:34 6,7 C 6,1 C 3,9 C 90 % 1013,6 hPa 0,0 l/m 0 min 0 min 0 W/m 0,0 km/h (0 Bft) 100,00 %
04.02.2021 20:36 6,7 C 6,1 C 3,9 C 90 % 1013,6 hPa 0,0 l/m 0 min 0 min 0 W/m 0,0 km/h (0 Bft) 100,00 %
04.02.2021 20:38 6,7 C 6,1 C 3,9 C 90 % 1013,5 hPa 0,0 l/m 0 min 0 min 0 W/m 0,0 km/h (0 Bft) 97,87 %
04.02.2021 20:40 6,7 C 6,1 C 3,9 C 90 % 1013,5 hPa 0,0 l/m 0 min 0 min 0 W/m 0,0 km/h (0 Bft) 97,87 %
04.02.2021 20:42 6,7 C 6,1 C 3,9 C 90 % 1013,4 hPa 0,0 l/m 0 min 0 min 0 W/m 0,0 km/h (0 Bft) 100,00 %
04.02.2021 20:44 6,7 C 6,1 C 3,9 C 90 % 1013,4 hPa 0,0 l/m 0 min 0 min 0 W/m 0,0 km/h (0 Bft) 95,74 %
04.02.2021 20:46 6,6 C 6,1 C 3,9 C 90 % 1013,3 hPa 0,0 l/m 0 min 0 min 0 W/m 0,0 km/h (0 Bft) 95,74 %
04.02.2021 20:48 6,7 C 6,1 C 4,5 C 90 % 1013,4 hPa 0,0 l/m 0 min 0 min 0 W/m 0,0 km/h (0 Bft) 97,83 %
04.02.2021 20:50 6,7 C 6,1 C 4,5 C 90 % 1013,4 hPa 0,0 l/m 0 min 0 min 0 W/m 0,0 km/h (0 Bft) 97,87 %
04.02.2021 20:52 6,7 C 6,7 C 4,5 C 91 % 1013,4 hPa 0,0 l/m 0 min 0 min 0 W/m 0,0 km/h (0 Bft) 95,74 %
04.02.2021 20:54 6,8 C 6,7 C 4,5 C 91 % 1013,5 hPa 0,0 l/m 0 min 0 min 0 W/m 0,0 km/h (0 Bft) 95,74 %
04.02.2021 20:56 6,8 C 6,7 C 5,0 C 90 % 1013,5 hPa 0,0 l/m 0 min 0 min 0 W/m 0,0 km/h (0 Bft) 95,74 %
04.02.2021 20:58 6,8 C 6,7 C 5,0 C 90 % 1013,4 hPa 0,0 l/m 0 min 0 min 0 W/m 0,0 km/h (0 Bft) 95,74 %
04.02.2021 21:00 6,9 C 6,7 C 5,0 C 90 % 1013,4 hPa 0,0 l/m 0 min 0 min 0 W/m 0,0 km/h (0 Bft) 93,48 %
04.02.2021 21:02 6,9 C 6,1 C 5,0 C 90 % 1013,5 hPa 0,0 l/m 0 min 0 min 0 W/m 3,2 km/h (1 Bft) 95,74 %
04.02.2021 21:04 7,0 C 6,1 C 4,5 C 90 % 1013,5 hPa 0,0 l/m 0 min 2 min 0 W/m 0,0 km/h (0 Bft) 95,74 %
04.02.2021 21:06 7,1 C 6,1 C 3,9 C 90 % 1013,5 hPa 0,0 l/m 0 min 2 min 0 W/m 0,0 km/h (0 Bft) 93,62 %
04.02.2021 21:08 7,1 C 5,6 C 3,9 C 90 % 1013,5 hPa 0,0 l/m 0 min 2 min 0 W/m 0,0 km/h (0 Bft) 95,74 %
04.02.2021 21:10 7,1 C 5,6 C 3,9 C 90 % 1013,5 hPa 0,2 l/m 0 min 2 min 0 W/m 0,0 km/h (0 Bft) 95,74 %
04.02.2021 21:12 7,2 C 5,6 C 3,9 C 90 % 1013,5 hPa 0,0 l/m 0 min 2 min 0 W/m 0,0 km/h (0 Bft) 95,65 %
04.02.2021 21:14 7,2 C 5,6 C 3,9 C 90 % 1013,5 hPa 0,0 l/m 0 min 2 min 0 W/m 0,0 km/h (0 Bft) 95,74 %
04.02.2021 21:16 7,2 C 5,6 C 3,9 C 90 % 1013,4 hPa 0,0 l/m 0 min 2 min 0 W/m 0,0 km/h (0 Bft) 95,74 %
04.02.2021 21:18 7,2 C 5,6 C 3,9 C 90 % 1013,4 hPa 0,0 l/m 0 min 2 min 0 W/m 0,0 km/h (0 Bft) 93,62 %
04.02.2021 21:20 7,2 C 5,6 C 3,9 C 90 % 1013,4 hPa 0,0 l/m 0 min 2 min 0 W/m 0,0 km/h (0 Bft) 93,62 %
04.02.2021 21:22 7,2 C 5,6 C 3,9 C 90 % 1013,4 hPa 0,0 l/m 0 min 2 min 0 W/m 0,0 km/h (0 Bft) 93,62 %
04.02.2021 21:24 7,2 C 5,6 C 3,9 C 90 % 1013,3 hPa 0,0 l/m 0 min 2 min 0 W/m 0,0 km/h (0 Bft) 95,65 %
04.02.2021 21:26 7,1 C 5,6 C 3,9 C 90 % 1013,3 hPa 0,0 l/m 0 min 2 min 0 W/m 0,0 km/h (0 Bft) 95,74 %
04.02.2021 21:28 7,2 C 5,6 C 3,9 C 90 % 1013,4 hPa 0,0 l/m 0 min 0 min 0 W/m 0,0 km/h (0 Bft) 91,49 %
04.02.2021 21:30 7,1 C 5,6 C 3,9 C 90 % 1013,4 hPa 0,0 l/m 0 min 2 min 0 W/m 0,0 km/h (0 Bft) 93,62 %
04.02.2021 21:32 7,1 C 5,6 C 3,9 C 90 % 1013,3 hPa 0,2 l/m 0 min 2 min 0 W/m 0,0 km/h (0 Bft) 95,74 %
04.02.2021 21:34 7,1 C 5,6 C 3,9 C 90 % 1013,3 hPa 0,0 l/m 0 min 2 min 0 W/m 0,0 km/h (0 Bft) 95,74 %
04.02.2021 21:36 7,1 C 5,6 C 3,9 C 90 % 1013,3 hPa 0,0 l/m 0 min 0 min 0 W/m 0,0 km/h (0 Bft) 97,83 %
04.02.2021 21:38 7,1 C 5,6 C 3,9 C 90 % 1013,3 hPa 0,0 l/m 0 min 0 min 0 W/m 0,0 km/h (0 Bft) 97,87 %
04.02.2021 21:40 7,1 C 5,6 C 3,9 C 90 % 1013,3 hPa 0,0 l/m 0 min 0 min 0 W/m 0,0 km/h (0 Bft) 94,29 %
04.02.2021 21:42 7,1 C 5,6 C 3,9 C 91 % 1013,3 hPa 0,0 l/m 0 min 0 min 0 W/m 0,0 km/h (0 Bft) 95,74 %
04.02.2021 21:44 7,1 C 5,6 C 3,9 C 91 % 1013,2 hPa 0,0 l/m 0 min 0 min 0 W/m 0,0 km/h (0 Bft) 97,87 %
04.02.2021 21:46 7,0 C 5,6 C 3,9 C 90 % 1013,2 hPa 0,0 l/m 0 min 0 min 0 W/m 0,0 km/h (0 Bft) 97,87 %
04.02.2021 21:48 7,0 C 5,6 C 3,9 C 91 % 1013,1 hPa 0,0 l/m 0 min 0 min 0 W/m 0,0 km/h (0 Bft) 97,87 %
04.02.2021 21:50 7,0 C 5,0 C 3,9 C 91 % 1013,2 hPa 0,0 l/m 0 min 0 min 0 W/m 0,0 km/h (0 Bft) 97,87 %
04.02.2021 21:52 7,0 C 5,0 C 3,4 C 91 % 1013,2 hPa 0,0 l/m 0 min 0 min 0 W/m 0,0 km/h (0 Bft) 97,83 %
04.02.2021 21:54 7,0 C 5,0 C 3,4 C 91 % 1013,2 hPa 0,0 l/m 0 min 0 min 0 W/m 0,0 km/h (0 Bft) 97,87 %
04.02.2021 21:56 7,0 C 5,0 C 3,4 C 91 % 1013,1 hPa 0,0 l/m 0 min 0 min 0 W/m 0,0 km/h (0 Bft) 97,87 %
04.02.2021 21:58 6,9 C 5,0 C 3,4 C 91 % 1013,1 hPa 0,0 l/m 0 min 0 min 0 W/m 0,0 km/h (0 Bft) 95,74 %
04.02.2021 22:00 6,9 C 5,0 C 3,4 C 91 % 1013,1 hPa 0,0 l/m 0 min 0 min 0 W/m 0,0 km/h (0 Bft) 97,87 %
04.02.2021 22:02 6,9 C 5,0 C 3,4 C 91 % 1013,1 hPa 0,0 l/m 0 min 0 min 0 W/m 0,0 km/h (0 Bft) 97,87 %
04.02.2021 22:04 6,9 C 5,0 C 3,4 C 91 % 1013,1 hPa 0,0 l/m 0 min 0 min 0 W/m 0,0 km/h (0 Bft) 97,87 %
04.02.2021 22:06 6,9 C 5,0 C 3,4 C 91 % 1013,1 hPa 0,0 l/m 0 min 0 min 0 W/m 0,0 km/h (0 Bft) 97,87 %
04.02.2021 22:08 6,8 C 5,0 C 3,4 C 91 % 1013,2 hPa 0,0 l/m 0 min 0 min 0 W/m 0,0 km/h (0 Bft) 97,87 %
04.02.2021 22:10 6,8 C 5,0 C 3,4 C 91 % 1013,2 hPa 0,0 l/m 0 min 0 min 0 W/m 0,0 km/h (0 Bft) 97,87 %
04.02.2021 22:12 6,8 C 5,0 C 3,4 C 91 % 1013,2 hPa 0,0 l/m 0 min 0 min 0 W/m 0,0 km/h (0 Bft) 97,87 %
04.02.2021 22:14 6,8 C 5,0 C 3,4 C 91 % 1013,1 hPa 0,0 l/m 0 min 0 min 0 W/m 0,0 km/h (0 Bft) 97,83 %
04.02.2021 22:16 6,8 C 5,0 C 3,4 C 91 % 1013,1 hPa 0,0 l/m 0 min 0 min 0 W/m 0,0 km/h (0 Bft) 97,87 %
04.02.2021 22:18 6,7 C 5,0 C 3,4 C 91 % 1013,1 hPa 0,0 l/m 0 min 0 min 0 W/m 0,0 km/h (0 Bft) 95,74 %
04.02.2021 22:20 6,6 C 5,6 C 3,9 C 91 % 1013,2 hPa 0,0 l/m 0 min 0 min 0 W/m 0,0 km/h (0 Bft) 97,87 %
04.02.2021 22:22 6,6 C 5,6 C 3,9 C 91 % 1013,2 hPa 0,0 l/m 0 min 0 min 0 W/m 0,0 km/h (0 Bft) 97,87 %
04.02.2021 22:24 6,6 C 5,6 C 3,9 C 92 % 1013,3 hPa 0,0 l/m 0 min 0 min 0 W/m 0,0 km/h (0 Bft) 97,87 %
04.02.2021 22:26 6,6 C 5,6 C 3,9 C 92 % 1013,3 hPa 0,0 l/m 0 min 0 min 0 W/m 0,0 km/h (0 Bft) 97,83 %
04.02.2021 22:28 6,6 C 5,6 C 3,9 C 92 % 1013,3 hPa 0,0 l/m 0 min 0 min 0 W/m 0,0 km/h (0 Bft) 97,87 %
04.02.2021 22:30 6,6 C 5,6 C 3,9 C 92 % 1013,2 hPa 0,0 l/m 0 min 0 min 0 W/m 0,0 km/h (0 Bft) 97,87 %
04.02.2021 22:32 6,6 C 5,6 C 3,9 C 92 % 1013,2 hPa 0,0 l/m 0 min 0 min 0 W/m 0,0 km/h (0 Bft) 97,87 %
04.02.2021 22:34 6,6 C 5,6 C 3,9 C 92 % 1013,2 hPa 0,0 l/m 0 min 0 min 0 W/m 0,0 km/h (0 Bft) 97,87 %
04.02.2021 22:36 6,6 C 5,6 C 3,9 C 92 % 1013,1 hPa 0,0 l/m 0 min 0 min 0 W/m 0,0 km/h (0 Bft) 97,87 %
04.02.2021 22:38 6,6 C 5,6 C 3,9 C 92 % 1013,1 hPa 0,0 l/m 0 min 0 min 0 W/m 0,0 km/h (0 Bft) 97,83 %
04.02.2021 22:40 6,5 C 5,6 C 3,9 C 92 % 1013,1 hPa 0,0 l/m 0 min 0 min 0 W/m 0,0 km/h (0 Bft) 97,87 %
04.02.2021 22:42 6,5 C 5,6 C 3,9 C 92 % 1013,2 hPa 0,0 l/m 0 min 0 min 0 W/m 0,0 km/h (0 Bft) 97,87 %
04.02.2021 22:44 6,5 C 5,6 C 3,9 C 92 % 1013,2 hPa 0,0 l/m 0 min 0 min 0 W/m 0,0 km/h (0 Bft) 97,87 %
04.02.2021 22:46 6,5 C 5,6 C 3,4 C 92 % 1013,1 hPa 0,0 l/m 0 min 0 min 0 W/m 0,0 km/h (0 Bft) 95,74 %
04.02.2021 22:48 6,5 C 5,6 C 3,4 C 92 % 1013,1 hPa 0,0 l/m 0 min 0 min 0 W/m 0,0 km/h (0 Bft) 97,87 %
04.02.2021 22:50 6,5 C 5,6 C 3,4 C 92 % 1013,1 hPa 0,0 l/m 0 min 0 min 0 W/m 0,0 km/h (0 Bft) 97,83 %
04.02.2021 22:52 6,5 C 5,6 C 3,4 C 92 % 1013,1 hPa 0,0 l/m 0 min 0 min 0 W/m 0,0 km/h (0 Bft) 95,74 %
04.02.2021 22:54 6,5 C 5,6 C 3,4 C 92 % 1013,2 hPa 0,0 l/m 0 min 0 min 0 W/m 0,0 km/h (0 Bft) 97,87 %
04.02.2021 22:56 6,5 C 5,0 C 3,4 C 92 % 1013,1 hPa 0,0 l/m 0 min 0 min 0 W/m 0,0 km/h (0 Bft) 95,74 %
04.02.2021 22:58 6,5 C 5,0 C 3,4 C 92 % 1013,1 hPa 0,0 l/m 0 min 0 min 0 W/m 0,0 km/h (0 Bft) 97,87 %
04.02.2021 23:00 6,5 C 5,0 C 3,4 C 92 % 1013,1 hPa 0,0 l/m 0 min 0 min 0 W/m 0,0 km/h (0 Bft) 55,56 %
04.02.2021 23:02 6,5 C 5,0 C 3,4 C 92 % 1013,2 hPa 0,0 l/m 0 min 0 min 0 W/m 0,0 km/h (0 Bft) 97,62 %
04.02.2021 23:04 6,4 C 5,0 C 3,4 C 92 % 1013,2 hPa 0,0 l/m 0 min 0 min 0 W/m 0,0 km/h (0 Bft) 95,74 %
04.02.2021 23:06 6,4 C 5,0 C 3,4 C 92 % 1013,3 hPa 0,0 l/m 0 min 0 min 0 W/m 0,0 km/h (0 Bft) 95,74 %
04.02.2021 23:08 6,4 C 5,0 C 3,4 C 92 % 1013,3 hPa 0,0 l/m 0 min 0 min 0 W/m 0,0 km/h (0 Bft) 97,87 %
04.02.2021 23:10 6,4 C 5,0 C 3,4 C 92 % 1013,3 hPa 0,0 l/m 0 min 0 min 0 W/m 0,0 km/h (0 Bft) 95,74 %
04.02.2021 23:12 6,4 C 5,0 C 3,4 C 92 % 1013,3 hPa 0,0 l/m 0 min 0 min 0 W/m 0,0 km/h (0 Bft) 95,74 %
04.02.2021 23:14 6,4 C 5,0 C 3,4 C 92 % 1013,3 hPa 0,0 l/m 0 min 0 min 0 W/m 0,0 km/h (0 Bft) 95,65 %
04.02.2021 23:16 6,4 C 5,0 C 3,4 C 92 % 1013,2 hPa 0,0 l/m 0 min 0 min 0 W/m 0,0 km/h (0 Bft) 95,74 %
04.02.2021 23:18 6,4 C 5,0 C 3,4 C 92 % 1013,2 hPa 0,0 l/m 0 min 0 min 0 W/m 0,0 km/h (0 Bft) 94,64 %
04.02.2021 23:20 6,4 C 4,4 C 3,4 C 92 % 1013,2 hPa 0,0 l/m 0 min 0 min 0 W/m 0,0 km/h (0 Bft) 95,83 %
04.02.2021 23:22 6,4 C 4,4 C 3,4 C 92 % 1013,2 hPa 0,0 l/m 0 min 0 min 0 W/m 0,0 km/h (0 Bft) 95,74 %
04.02.2021 23:24 6,3 C 4,4 C 3,4 C 92 % 1013,1 hPa 0,0 l/m 0 min 0 min 0 W/m 0,0 km/h (0 Bft) 93,62 %
04.02.2021 23:26 6,3 C 4,4 C 3,4 C 92 % 1013,2 hPa 0,0 l/m 0 min 0 min 0 W/m 0,0 km/h (0 Bft) 93,48 %
04.02.2021 23:28 6,3 C 4,4 C 3,4 C 92 % 1013,1 hPa 0,0 l/m 0 min 0 min 0 W/m 0,0 km/h (0 Bft) 95,74 %
04.02.2021 23:30 6,3 C 4,4 C 3,4 C 92 % 1013,1 hPa 0,0 l/m 0 min 0 min 0 W/m 0,0 km/h (0 Bft) 95,74 %
04.02.2021 23:32 6,2 C 4,4 C 3,4 C 92 % 1013,1 hPa 0,0 l/m 0 min 0 min 0 W/m 0,0 km/h (0 Bft) 95,83 %
04.02.2021 23:34 6,2 C 4,4 C 3,4 C 92 % 1013,1 hPa 0,0 l/m 0 min 0 min 0 W/m 0,0 km/h (0 Bft) 95,74 %
04.02.2021 23:36 6,2 C 5,0 C 3,4 C 92 % 1013,0 hPa 0,0 l/m 0 min 0 min 0 W/m 0,0 km/h (0 Bft) 93,48 %
04.02.2021 23:38 6,2 C 5,0 C 3,4 C 92 % 1013,0 hPa 0,0 l/m 0 min 0 min 0 W/m 0,0 km/h (0 Bft) 95,74 %
04.02.2021 23:40 6,1 C 5,0 C 3,4 C 92 % 1013,0 hPa 0,0 l/m 0 min 0 min 0 W/m 0,0 km/h (0 Bft) 95,74 %
04.02.2021 23:42 6,1 C 5,0 C 3,4 C 92 % 1013,0 hPa 0,0 l/m 0 min 0 min 0 W/m 0,0 km/h (0 Bft) 95,74 %
04.02.2021 23:44 6,1 C 5,0 C 3,4 C 92 % 1012,9 hPa 0,0 l/m 0 min 0 min 0 W/m 0,0 km/h (0 Bft) 97,87 %
04.02.2021 23:46 6,1 C 5,0 C 3,4 C 92 % 1012,9 hPa 0,0 l/m 0 min 0 min 0 W/m 0,0 km/h (0 Bft) 95,74 %
04.02.2021 23:48 6,1 C 5,0 C 3,4 C 92 % 1012,9 hPa 0,0 l/m 0 min 0 min 0 W/m 0,0 km/h (0 Bft) 95,65 %
04.02.2021 23:50 6,1 C 5,0 C 3,4 C 92 % 1012,9 hPa 0,0 l/m 0 min 0 min 0 W/m 0,0 km/h (0 Bft) 93,62 %
04.02.2021 23:52 6,0 C 5,0 C 3,4 C 92 % 1012,9 hPa 0,0 l/m 0 min 0 min 0 W/m 0,0 km/h (0 Bft) 95,74 %
04.02.2021 23:54 6,0 C 5,0 C 3,4 C 92 % 1012,9 hPa 0,0 l/m 0 min 0 min 0 W/m 0,0 km/h (0 Bft) 93,62 %
04.02.2021 23:56 6,0 C 5,0 C 3,4 C 92 % 1012,9 hPa 0,0 l/m 0 min 0 min 0 W/m 0,0 km/h (0 Bft) 95,74 %
04.02.2021 23:58 6,0 C 5,0 C 3,4 C 92 % 1012,8 hPa 0,0 l/m 0 min 0 min 0 W/m 0,0 km/h (0 Bft) 95,74 %
_ Min-Zeit 08:24 23:20 21:52 15:22 00:00 - - - - 00:00 07:20
Minimum _ 5,5 C 4,4 C 3,4 C 76 % 1004,6 hPa - - - - 0,0 km/h (0 Bft) 48,65 %
_ Max-Zeit 15:28 12:30 12:32 00:00 11:22 00:28 12:08 00:08 12:34 01:56 00:00
Maximum _ 10,7 C 15,6 C 16,7 C 99 % 1014,8 hPa 0,2 l/m 4 min 4 min 526 W/m 25,7 km/h
N-NO (4 Bft)
100,00 %
Durchschnitt _ 7,6 C 7,2 C 6,0 C 91 % 1012,2 hPa #0,8 l/m #2:22 h #2:06 h 133 W/m 0,6 km/h (0 Bft) 97,07 %
© 2021 W. Hausmann